<?xml version="1.0" encoding="UTF-8" standalone="no" ?>
<gpx xmlns="http://www.topografix.com/GPX/1/1" xmlns:xsi="http://www.w3.org/2001/XMLSchema-instance" xsi:schemaLocation="http://www.topografix.com/GPX/1/1 http://www.topografix.com/GPX/1/1/gpx.xsd" version="1.1" creator="VisuGPX - https://www.visugpx.com">
  <metadata>
    <name>lundi 2016 08</name>
    <desc><![CDATA[cumul des lundi du mois d'aout 2016]]></desc>
  </metadata>
  <trk>
    <name><![CDATA[Rando Roller du lundi 1er août]]></name>
    <desc><![CDATA[Mairies de 1 à 12]]></desc>
    <trkseg>
      <trkpt lat="48.85734" lon="2.34727">
        <ele>40.400001525879</ele>
        <time>2016-08-01T18:18:43.000Z</time>
      </trkpt>
      <trkpt lat="48.85739" lon="2.34721">
        <ele>40.400001525879</ele>
        <time>2016-08-01T18:19:12.000Z</time>
      </trkpt>
      <trkpt lat="48.85749" lon="2.34714">
        <ele>40</ele>
        <time>2016-08-01T18:19:24.000Z</time>
      </trkpt>
      <trkpt lat="48.85792" lon="2.34696">
        <ele>39.799999237061</ele>
        <time>2016-08-01T18:19:43.000Z</time>
      </trkpt>
      <trkpt lat="48.85802" lon="2.34667">
        <ele>41.200000762939</ele>
        <time>2016-08-01T18:19:48.000Z</time>
      </trkpt>
      <trkpt lat="48.85819" lon="2.34601">
        <ele>47.799999237061</ele>
        <time>2016-08-01T18:20:00.000Z</time>
      </trkpt>
      <trkpt lat="48.8582" lon="2.3459">
        <ele>48.200000762939</ele>
        <time>2016-08-01T18:20:03.000Z</time>
      </trkpt>
      <trkpt lat="48.85813" lon="2.34562">
        <ele>46.799999237061</ele>
        <time>2016-08-01T18:20:10.000Z</time>
      </trkpt>
      <trkpt lat="48.85822" lon="2.34529">
        <ele>45.799999237061</ele>
        <time>2016-08-01T18:20:20.000Z</time>
      </trkpt>
      <trkpt lat="48.85836" lon="2.34463">
        <ele>46.200000762939</ele>
        <time>2016-08-01T18:20:33.000Z</time>
      </trkpt>
      <trkpt lat="48.85842" lon="2.34406">
        <ele>46.200000762939</ele>
        <time>2016-08-01T18:20:46.000Z</time>
      </trkpt>
      <trkpt lat="48.85825" lon="2.34363">
        <ele>47.200000762939</ele>
        <time>2016-08-01T18:20:57.000Z</time>
      </trkpt>
      <trkpt lat="48.85847" lon="2.34297">
        <ele>55.599998474121</ele>
        <time>2016-08-01T18:21:13.000Z</time>
      </trkpt>
      <trkpt lat="48.8585" lon="2.34295">
        <ele>56.200000762939</ele>
        <time>2016-08-01T18:21:14.000Z</time>
      </trkpt>
      <trkpt lat="48.85858" lon="2.34284">
        <ele>58.400001525879</ele>
        <time>2016-08-01T18:21:23.000Z</time>
      </trkpt>
      <trkpt lat="48.85857" lon="2.34265">
        <ele>60.200000762939</ele>
        <time>2016-08-01T18:21:28.000Z</time>
      </trkpt>
      <trkpt lat="48.8585" lon="2.34245">
        <ele>60.799999237061</ele>
        <time>2016-08-01T18:21:38.000Z</time>
      </trkpt>
      <trkpt lat="48.85848" lon="2.34239">
        <ele>60.400001525879</ele>
        <time>2016-08-01T18:21:42.000Z</time>
      </trkpt>
      <trkpt lat="48.85847" lon="2.34237">
        <ele>60</ele>
        <time>2016-08-01T18:21:44.000Z</time>
      </trkpt>
      <trkpt lat="48.85853" lon="2.34217">
        <ele>59.599998474121</ele>
        <time>2016-08-01T18:21:51.000Z</time>
      </trkpt>
      <trkpt lat="48.85854" lon="2.34206">
        <ele>59.200000762939</ele>
        <time>2016-08-01T18:21:57.000Z</time>
      </trkpt>
      <trkpt lat="48.85858" lon="2.34199">
        <ele>58.799999237061</ele>
        <time>2016-08-01T18:22:00.000Z</time>
      </trkpt>
      <trkpt lat="48.85868" lon="2.34189">
        <ele>57.400001525879</ele>
        <time>2016-08-01T18:22:04.000Z</time>
      </trkpt>
      <trkpt lat="48.85908" lon="2.34161">
        <ele>52</ele>
        <time>2016-08-01T18:22:21.000Z</time>
      </trkpt>
      <trkpt lat="48.85929" lon="2.34099">
        <ele>48.400001525879</ele>
        <time>2016-08-01T18:22:32.000Z</time>
      </trkpt>
      <trkpt lat="48.85946" lon="2.34075">
        <ele>48.799999237061</ele>
        <time>2016-08-01T18:22:38.000Z</time>
      </trkpt>
      <trkpt lat="48.85992" lon="2.34083">
        <ele>48.400001525879</ele>
        <time>2016-08-01T18:22:49.000Z</time>
      </trkpt>
      <trkpt lat="48.86025" lon="2.34112">
        <ele>48</ele>
        <time>2016-08-01T18:23:33.000Z</time>
      </trkpt>
      <trkpt lat="48.86038" lon="2.34074">
        <ele>47</ele>
        <time>2016-08-01T18:23:44.000Z</time>
      </trkpt>
      <trkpt lat="48.86075" lon="2.34104">
        <ele>47.400001525879</ele>
        <time>2016-08-01T18:24:10.000Z</time>
      </trkpt>
      <trkpt lat="48.86083" lon="2.341">
        <ele>47</ele>
        <time>2016-08-01T18:24:20.000Z</time>
      </trkpt>
      <trkpt lat="48.86107" lon="2.34093">
        <ele>46.400001525879</ele>
        <time>2016-08-01T18:24:32.000Z</time>
      </trkpt>
      <trkpt lat="48.8615" lon="2.3412">
        <ele>48</ele>
        <time>2016-08-01T18:24:46.000Z</time>
      </trkpt>
      <trkpt lat="48.86191" lon="2.34148">
        <ele>49.799999237061</ele>
        <time>2016-08-01T18:24:56.000Z</time>
      </trkpt>
      <trkpt lat="48.86234" lon="2.34173">
        <ele>49.799999237061</ele>
        <time>2016-08-01T18:25:06.000Z</time>
      </trkpt>
      <trkpt lat="48.86249" lon="2.34179">
        <ele>49.799999237061</ele>
        <time>2016-08-01T18:25:09.000Z</time>
      </trkpt>
      <trkpt lat="48.86294" lon="2.34177">
        <ele>49.799999237061</ele>
        <time>2016-08-01T18:25:19.000Z</time>
      </trkpt>
      <trkpt lat="48.86298" lon="2.34171">
        <ele>49.799999237061</ele>
        <time>2016-08-01T18:25:20.000Z</time>
      </trkpt>
      <trkpt lat="48.8631" lon="2.3415">
        <ele>49.799999237061</ele>
        <time>2016-08-01T18:25:23.000Z</time>
      </trkpt>
      <trkpt lat="48.86319" lon="2.3413">
        <ele>50.200000762939</ele>
        <time>2016-08-01T18:25:26.000Z</time>
      </trkpt>
      <trkpt lat="48.86333" lon="2.3407">
        <ele>48.799999237061</ele>
        <time>2016-08-01T18:25:35.000Z</time>
      </trkpt>
      <trkpt lat="48.86342" lon="2.34">
        <ele>49.200000762939</ele>
        <time>2016-08-01T18:25:47.000Z</time>
      </trkpt>
      <trkpt lat="48.86349" lon="2.33994">
        <ele>49</ele>
        <time>2016-08-01T18:25:50.000Z</time>
      </trkpt>
      <trkpt lat="48.86392" lon="2.34026">
        <ele>49.599998474121</ele>
        <time>2016-08-01T18:26:00.000Z</time>
      </trkpt>
      <trkpt lat="48.86435" lon="2.34045">
        <ele>50.400001525879</ele>
        <time>2016-08-01T18:26:11.000Z</time>
      </trkpt>
      <trkpt lat="48.8648" lon="2.34062">
        <ele>50.200000762939</ele>
        <time>2016-08-01T18:26:22.000Z</time>
      </trkpt>
      <trkpt lat="48.86523" lon="2.34091">
        <ele>49.799999237061</ele>
        <time>2016-08-01T18:26:37.000Z</time>
      </trkpt>
      <trkpt lat="48.8656" lon="2.3413">
        <ele>48.799999237061</ele>
        <time>2016-08-01T18:26:49.000Z</time>
      </trkpt>
      <trkpt lat="48.86574" lon="2.34132">
        <ele>48.799999237061</ele>
        <time>2016-08-01T18:26:52.000Z</time>
      </trkpt>
      <trkpt lat="48.86588" lon="2.34119">
        <ele>48.799999237061</ele>
        <time>2016-08-01T18:26:56.000Z</time>
      </trkpt>
      <trkpt lat="48.86589" lon="2.34081">
        <ele>49.200000762939</ele>
        <time>2016-08-01T18:27:02.000Z</time>
      </trkpt>
      <trkpt lat="48.86591" lon="2.34061">
        <ele>49</ele>
        <time>2016-08-01T18:27:05.000Z</time>
      </trkpt>
      <trkpt lat="48.86607" lon="2.34003">
        <ele>50.799999237061</ele>
        <time>2016-08-01T18:27:18.000Z</time>
      </trkpt>
      <trkpt lat="48.8665" lon="2.3403">
        <ele>50.200000762939</ele>
        <time>2016-08-01T18:27:37.000Z</time>
      </trkpt>
      <trkpt lat="48.86693" lon="2.3405">
        <ele>49.799999237061</ele>
        <time>2016-08-01T18:27:51.000Z</time>
      </trkpt>
      <trkpt lat="48.86738" lon="2.3408">
        <ele>49</ele>
        <time>2016-08-01T18:28:04.000Z</time>
      </trkpt>
      <trkpt lat="48.86784" lon="2.34102">
        <ele>49</ele>
        <time>2016-08-01T18:28:16.000Z</time>
      </trkpt>
      <trkpt lat="48.86827" lon="2.34128">
        <ele>48.200000762939</ele>
        <time>2016-08-01T18:28:31.000Z</time>
      </trkpt>
      <trkpt lat="48.8686" lon="2.34136">
        <ele>47.200000762939</ele>
        <time>2016-08-01T18:28:54.000Z</time>
      </trkpt>
      <trkpt lat="48.86853" lon="2.34207">
        <ele>48.599998474121</ele>
        <time>2016-08-01T18:29:08.000Z</time>
      </trkpt>
      <trkpt lat="48.86852" lon="2.34219">
        <ele>48.799999237061</ele>
        <time>2016-08-01T18:29:09.000Z</time>
      </trkpt>
      <trkpt lat="48.8685" lon="2.34225">
        <ele>49</ele>
        <time>2016-08-01T18:29:11.000Z</time>
      </trkpt>
      <trkpt lat="48.86835" lon="2.34283">
        <ele>49.799999237061</ele>
        <time>2016-08-01T18:29:20.000Z</time>
      </trkpt>
      <trkpt lat="48.86819" lon="2.34348">
        <ele>48.599998474121</ele>
        <time>2016-08-01T18:29:31.000Z</time>
      </trkpt>
      <trkpt lat="48.86804" lon="2.34412">
        <ele>47.599998474121</ele>
        <time>2016-08-01T18:29:43.000Z</time>
      </trkpt>
      <trkpt lat="48.86791" lon="2.34483">
        <ele>50.400001525879</ele>
        <time>2016-08-01T18:29:57.000Z</time>
      </trkpt>
      <trkpt lat="48.8678" lon="2.34553">
        <ele>50.400001525879</ele>
        <time>2016-08-01T18:30:08.000Z</time>
      </trkpt>
      <trkpt lat="48.86776" lon="2.34587">
        <ele>50.200000762939</ele>
        <time>2016-08-01T18:30:13.000Z</time>
      </trkpt>
      <trkpt lat="48.86765" lon="2.34658">
        <ele>49.799999237061</ele>
        <time>2016-08-01T18:30:22.000Z</time>
      </trkpt>
      <trkpt lat="48.86758" lon="2.34693">
        <ele>49</ele>
        <time>2016-08-01T18:30:26.000Z</time>
      </trkpt>
      <trkpt lat="48.86737" lon="2.34755">
        <ele>48.799999237061</ele>
        <time>2016-08-01T18:30:33.000Z</time>
      </trkpt>
      <trkpt lat="48.86718" lon="2.34822">
        <ele>47.599998474121</ele>
        <time>2016-08-01T18:30:40.000Z</time>
      </trkpt>
      <trkpt lat="48.8671" lon="2.34896">
        <ele>46</ele>
        <time>2016-08-01T18:30:47.000Z</time>
      </trkpt>
      <trkpt lat="48.86696" lon="2.34971">
        <ele>47</ele>
        <time>2016-08-01T18:30:54.000Z</time>
      </trkpt>
      <trkpt lat="48.86679" lon="2.3504">
        <ele>48</ele>
        <time>2016-08-01T18:31:01.000Z</time>
      </trkpt>
      <trkpt lat="48.86664" lon="2.35109">
        <ele>47.400001525879</ele>
        <time>2016-08-01T18:31:10.000Z</time>
      </trkpt>
      <trkpt lat="48.86653" lon="2.35178">
        <ele>48.400001525879</ele>
        <time>2016-08-01T18:31:20.000Z</time>
      </trkpt>
      <trkpt lat="48.86635" lon="2.35243">
        <ele>49.400001525879</ele>
        <time>2016-08-01T18:31:29.000Z</time>
      </trkpt>
      <trkpt lat="48.86619" lon="2.35314">
        <ele>48.599998474121</ele>
        <time>2016-08-01T18:31:40.000Z</time>
      </trkpt>
      <trkpt lat="48.86605" lon="2.3538">
        <ele>48</ele>
        <time>2016-08-01T18:31:50.000Z</time>
      </trkpt>
      <trkpt lat="48.86601" lon="2.35385">
        <ele>47.799999237061</ele>
        <time>2016-08-01T18:32:06.000Z</time>
      </trkpt>
      <trkpt lat="48.86586" lon="2.35457">
        <ele>47.200000762939</ele>
        <time>2016-08-01T18:32:18.000Z</time>
      </trkpt>
      <trkpt lat="48.86578" lon="2.35498">
        <ele>47</ele>
        <time>2016-08-01T18:32:24.000Z</time>
      </trkpt>
      <trkpt lat="48.86565" lon="2.35564">
        <ele>44</ele>
        <time>2016-08-01T18:32:35.000Z</time>
      </trkpt>
      <trkpt lat="48.86561" lon="2.35576">
        <ele>43.799999237061</ele>
        <time>2016-08-01T18:32:37.000Z</time>
      </trkpt>
      <trkpt lat="48.8655" lon="2.35649">
        <ele>45</ele>
        <time>2016-08-01T18:32:47.000Z</time>
      </trkpt>
      <trkpt lat="48.86548" lon="2.35657">
        <ele>45</ele>
        <time>2016-08-01T18:32:48.000Z</time>
      </trkpt>
      <trkpt lat="48.86533" lon="2.35727">
        <ele>45.200000762939</ele>
        <time>2016-08-01T18:32:55.000Z</time>
      </trkpt>
      <trkpt lat="48.86519" lon="2.35793">
        <ele>45.599998474121</ele>
        <time>2016-08-01T18:33:01.000Z</time>
      </trkpt>
      <trkpt lat="48.86504" lon="2.35865">
        <ele>45.200000762939</ele>
        <time>2016-08-01T18:33:07.000Z</time>
      </trkpt>
      <trkpt lat="48.86486" lon="2.35932">
        <ele>45</ele>
        <time>2016-08-01T18:33:16.000Z</time>
      </trkpt>
      <trkpt lat="48.86481" lon="2.35971">
        <ele>45.200000762939</ele>
        <time>2016-08-01T18:33:31.000Z</time>
      </trkpt>
      <trkpt lat="48.86444" lon="2.36021">
        <ele>43.200000762939</ele>
        <time>2016-08-01T18:33:46.000Z</time>
      </trkpt>
      <trkpt lat="48.86439" lon="2.36027">
        <ele>43</ele>
        <time>2016-08-01T18:33:47.000Z</time>
      </trkpt>
      <trkpt lat="48.86404" lon="2.36076">
        <ele>42.400001525879</ele>
        <time>2016-08-01T18:33:58.000Z</time>
      </trkpt>
      <trkpt lat="48.86393" lon="2.36116">
        <ele>43</ele>
        <time>2016-08-01T18:34:11.000Z</time>
      </trkpt>
      <trkpt lat="48.86425" lon="2.36163">
        <ele>42.200000762939</ele>
        <time>2016-08-01T18:34:28.000Z</time>
      </trkpt>
      <trkpt lat="48.8642" lon="2.36222">
        <ele>42.200000762939</ele>
        <time>2016-08-01T18:34:43.000Z</time>
      </trkpt>
      <trkpt lat="48.86392" lon="2.36276">
        <ele>44.400001525879</ele>
        <time>2016-08-01T18:34:58.000Z</time>
      </trkpt>
      <trkpt lat="48.86388" lon="2.36274">
        <ele>44.400001525879</ele>
        <time>2016-08-01T18:34:59.000Z</time>
      </trkpt>
      <trkpt lat="48.86352" lon="2.36228">
        <ele>44.599998474121</ele>
        <time>2016-08-01T18:35:13.000Z</time>
      </trkpt>
      <trkpt lat="48.86312" lon="2.36228">
        <ele>45.599998474121</ele>
        <time>2016-08-01T18:35:30.000Z</time>
      </trkpt>
      <trkpt lat="48.86291" lon="2.36255">
        <ele>47.400001525879</ele>
        <time>2016-08-01T18:35:42.000Z</time>
      </trkpt>
      <trkpt lat="48.86256" lon="2.36207">
        <ele>46.599998474121</ele>
        <time>2016-08-01T18:35:57.000Z</time>
      </trkpt>
      <trkpt lat="48.86216" lon="2.36164">
        <ele>46</ele>
        <time>2016-08-01T18:36:07.000Z</time>
      </trkpt>
      <trkpt lat="48.86183" lon="2.36117">
        <ele>46.400001525879</ele>
        <time>2016-08-01T18:36:16.000Z</time>
      </trkpt>
      <trkpt lat="48.86143" lon="2.36072">
        <ele>45.799999237061</ele>
        <time>2016-08-01T18:36:26.000Z</time>
      </trkpt>
      <trkpt lat="48.86118" lon="2.3604">
        <ele>45.599998474121</ele>
        <time>2016-08-01T18:36:33.000Z</time>
      </trkpt>
      <trkpt lat="48.86094" lon="2.3601">
        <ele>44.200000762939</ele>
        <time>2016-08-01T18:36:39.000Z</time>
      </trkpt>
      <trkpt lat="48.86087" lon="2.36001">
        <ele>43.599998474121</ele>
        <time>2016-08-01T18:36:41.000Z</time>
      </trkpt>
      <trkpt lat="48.86059" lon="2.35978">
        <ele>42</ele>
        <time>2016-08-01T18:36:51.000Z</time>
      </trkpt>
      <trkpt lat="48.86027" lon="2.3603">
        <ele>40</ele>
        <time>2016-08-01T18:37:08.000Z</time>
      </trkpt>
      <trkpt lat="48.86007" lon="2.36063">
        <ele>41.400001525879</ele>
        <time>2016-08-01T18:37:18.000Z</time>
      </trkpt>
      <trkpt lat="48.85973" lon="2.36014">
        <ele>41.799999237061</ele>
        <time>2016-08-01T18:37:29.000Z</time>
      </trkpt>
      <trkpt lat="48.85939" lon="2.35965">
        <ele>43</ele>
        <time>2016-08-01T18:37:38.000Z</time>
      </trkpt>
      <trkpt lat="48.85905" lon="2.35913">
        <ele>42.599998474121</ele>
        <time>2016-08-01T18:37:47.000Z</time>
      </trkpt>
      <trkpt lat="48.85898" lon="2.35904">
        <ele>42.599998474121</ele>
        <time>2016-08-01T18:37:49.000Z</time>
      </trkpt>
      <trkpt lat="48.85883" lon="2.35896">
        <ele>42.599998474121</ele>
        <time>2016-08-01T18:37:52.000Z</time>
      </trkpt>
      <trkpt lat="48.85877" lon="2.35887">
        <ele>42.599998474121</ele>
        <time>2016-08-01T18:37:54.000Z</time>
      </trkpt>
      <trkpt lat="48.85841" lon="2.35839">
        <ele>43.400001525879</ele>
        <time>2016-08-01T18:38:04.000Z</time>
      </trkpt>
      <trkpt lat="48.85838" lon="2.35836">
        <ele>43.599998474121</ele>
        <time>2016-08-01T18:38:05.000Z</time>
      </trkpt>
      <trkpt lat="48.85801" lon="2.35788">
        <ele>45.599998474121</ele>
        <time>2016-08-01T18:38:16.000Z</time>
      </trkpt>
      <trkpt lat="48.8576" lon="2.35747">
        <ele>47.200000762939</ele>
        <time>2016-08-01T18:38:28.000Z</time>
      </trkpt>
      <trkpt lat="48.85742" lon="2.35733">
        <ele>47</ele>
        <time>2016-08-01T18:38:33.000Z</time>
      </trkpt>
      <trkpt lat="48.85704" lon="2.35695">
        <ele>46.599998474121</ele>
        <time>2016-08-01T18:38:45.000Z</time>
      </trkpt>
      <trkpt lat="48.85673" lon="2.35684">
        <ele>46</ele>
        <time>2016-08-01T18:38:53.000Z</time>
      </trkpt>
      <trkpt lat="48.85688" lon="2.35617">
        <ele>46</ele>
        <time>2016-08-01T18:39:12.000Z</time>
      </trkpt>
      <trkpt lat="48.85692" lon="2.3559">
        <ele>46</ele>
        <time>2016-08-01T18:39:20.000Z</time>
      </trkpt>
      <trkpt lat="48.85687" lon="2.35567">
        <ele>46</ele>
        <time>2016-08-01T18:39:31.000Z</time>
      </trkpt>
      <trkpt lat="48.85643" lon="2.35547">
        <ele>42.799999237061</ele>
        <time>2016-08-01T18:39:47.000Z</time>
      </trkpt>
      <trkpt lat="48.85611" lon="2.35548">
        <ele>41.599998474121</ele>
        <time>2016-08-01T18:40:10.000Z</time>
      </trkpt>
      <trkpt lat="48.85595" lon="2.35605">
        <ele>43</ele>
        <time>2016-08-01T18:40:38.000Z</time>
      </trkpt>
      <trkpt lat="48.85587" lon="2.35618">
        <ele>43</ele>
        <time>2016-08-01T18:40:45.000Z</time>
      </trkpt>
      <trkpt lat="48.85551" lon="2.35577">
        <ele>41.599998474121</ele>
        <time>2016-08-01T18:40:59.000Z</time>
      </trkpt>
      <trkpt lat="48.85535" lon="2.35561">
        <ele>40.799999237061</ele>
        <time>2016-08-01T18:41:03.000Z</time>
      </trkpt>
      <trkpt lat="48.85505" lon="2.35519">
        <ele>38.599998474121</ele>
        <time>2016-08-01T18:41:12.000Z</time>
      </trkpt>
      <trkpt lat="48.85456" lon="2.35514">
        <ele>36.200000762939</ele>
        <time>2016-08-01T18:41:26.000Z</time>
      </trkpt>
      <trkpt lat="48.85446" lon="2.35507">
        <ele>35.599998474121</ele>
        <time>2016-08-01T18:42:27.000Z</time>
      </trkpt>
      <trkpt lat="48.85408" lon="2.35466">
        <ele>36.799999237061</ele>
        <time>2016-08-01T18:42:43.000Z</time>
      </trkpt>
      <trkpt lat="48.85368" lon="2.35427">
        <ele>39.400001525879</ele>
        <time>2016-08-01T18:42:55.000Z</time>
      </trkpt>
      <trkpt lat="48.85329" lon="2.35387">
        <ele>40.599998474121</ele>
        <time>2016-08-01T18:43:08.000Z</time>
      </trkpt>
      <trkpt lat="48.85294" lon="2.35339">
        <ele>40.599998474121</ele>
        <time>2016-08-01T18:43:23.000Z</time>
      </trkpt>
      <trkpt lat="48.85291" lon="2.35329">
        <ele>40.200000762939</ele>
        <time>2016-08-01T18:43:27.000Z</time>
      </trkpt>
      <trkpt lat="48.85274" lon="2.35266">
        <ele>38</ele>
        <time>2016-08-01T18:43:43.000Z</time>
      </trkpt>
      <trkpt lat="48.85268" lon="2.35239">
        <ele>36.799999237061</ele>
        <time>2016-08-01T18:43:50.000Z</time>
      </trkpt>
      <trkpt lat="48.85227" lon="2.35206">
        <ele>32.799999237061</ele>
        <time>2016-08-01T18:44:04.000Z</time>
      </trkpt>
      <trkpt lat="48.85186" lon="2.35177">
        <ele>29.799999237061</ele>
        <time>2016-08-01T18:44:16.000Z</time>
      </trkpt>
      <trkpt lat="48.85144" lon="2.35151">
        <ele>32.599998474121</ele>
        <time>2016-08-01T18:44:30.000Z</time>
      </trkpt>
      <trkpt lat="48.85113" lon="2.35141">
        <ele>35</ele>
        <time>2016-08-01T18:44:56.000Z</time>
      </trkpt>
      <trkpt lat="48.85108" lon="2.35136">
        <ele>35.599998474121</ele>
        <time>2016-08-01T18:45:07.000Z</time>
      </trkpt>
      <trkpt lat="48.85098" lon="2.35127">
        <ele>36.599998474121</ele>
        <time>2016-08-01T18:45:18.000Z</time>
      </trkpt>
      <trkpt lat="48.85093" lon="2.35123">
        <ele>37.200000762939</ele>
        <time>2016-08-01T18:45:26.000Z</time>
      </trkpt>
      <trkpt lat="48.85086" lon="2.35123">
        <ele>37.599998474121</ele>
        <time>2016-08-01T18:45:29.000Z</time>
      </trkpt>
      <trkpt lat="48.85045" lon="2.35088">
        <ele>42.200000762939</ele>
        <time>2016-08-01T18:45:43.000Z</time>
      </trkpt>
      <trkpt lat="48.85002" lon="2.35066">
        <ele>44</ele>
        <time>2016-08-01T18:45:56.000Z</time>
      </trkpt>
      <trkpt lat="48.84971" lon="2.35038">
        <ele>44.400001525879</ele>
        <time>2016-08-01T18:46:10.000Z</time>
      </trkpt>
      <trkpt lat="48.84928" lon="2.35016">
        <ele>45</ele>
        <time>2016-08-01T18:46:23.000Z</time>
      </trkpt>
      <trkpt lat="48.84903" lon="2.3499">
        <ele>47.599998474121</ele>
        <time>2016-08-01T18:47:15.000Z</time>
      </trkpt>
      <trkpt lat="48.84897" lon="2.34988">
        <ele>48</ele>
        <time>2016-08-01T18:47:19.000Z</time>
      </trkpt>
      <trkpt lat="48.84876" lon="2.3501">
        <ele>48.400001525879</ele>
        <time>2016-08-01T18:47:25.000Z</time>
      </trkpt>
      <trkpt lat="48.84834" lon="2.35039">
        <ele>48.799999237061</ele>
        <time>2016-08-01T18:47:34.000Z</time>
      </trkpt>
      <trkpt lat="48.84825" lon="2.35044">
        <ele>48.799999237061</ele>
        <time>2016-08-01T18:47:36.000Z</time>
      </trkpt>
      <trkpt lat="48.84796" lon="2.35078">
        <ele>48.400001525879</ele>
        <time>2016-08-01T18:47:44.000Z</time>
      </trkpt>
      <trkpt lat="48.84782" lon="2.35091">
        <ele>48</ele>
        <time>2016-08-01T18:47:47.000Z</time>
      </trkpt>
      <trkpt lat="48.84765" lon="2.35111">
        <ele>47.200000762939</ele>
        <time>2016-08-01T18:47:51.000Z</time>
      </trkpt>
      <trkpt lat="48.8475" lon="2.35132">
        <ele>46.200000762939</ele>
        <time>2016-08-01T18:47:55.000Z</time>
      </trkpt>
      <trkpt lat="48.84735" lon="2.35144">
        <ele>46</ele>
        <time>2016-08-01T18:47:58.000Z</time>
      </trkpt>
      <trkpt lat="48.84704" lon="2.35163">
        <ele>46.400001525879</ele>
        <time>2016-08-01T18:48:04.000Z</time>
      </trkpt>
      <trkpt lat="48.84678" lon="2.35172">
        <ele>48.200000762939</ele>
        <time>2016-08-01T18:48:09.000Z</time>
      </trkpt>
      <trkpt lat="48.84668" lon="2.35168">
        <ele>49.400001525879</ele>
        <time>2016-08-01T18:48:11.000Z</time>
      </trkpt>
      <trkpt lat="48.84633" lon="2.35124">
        <ele>53</ele>
        <time>2016-08-01T18:48:21.000Z</time>
      </trkpt>
      <trkpt lat="48.84605" lon="2.35069">
        <ele>56.599998474121</ele>
        <time>2016-08-01T18:48:34.000Z</time>
      </trkpt>
      <trkpt lat="48.84601" lon="2.34999">
        <ele>60.200000762939</ele>
        <time>2016-08-01T18:48:48.000Z</time>
      </trkpt>
      <trkpt lat="48.84616" lon="2.34932">
        <ele>60.200000762939</ele>
        <time>2016-08-01T18:49:01.000Z</time>
      </trkpt>
      <trkpt lat="48.84618" lon="2.34889">
        <ele>60.599998474121</ele>
        <time>2016-08-01T18:49:20.000Z</time>
      </trkpt>
      <trkpt lat="48.84623" lon="2.34879">
        <ele>60.400001525879</ele>
        <time>2016-08-01T18:50:17.000Z</time>
      </trkpt>
      <trkpt lat="48.84635" lon="2.34814">
        <ele>61</ele>
        <time>2016-08-01T18:50:32.000Z</time>
      </trkpt>
      <trkpt lat="48.84648" lon="2.34746">
        <ele>63</ele>
        <time>2016-08-01T18:50:50.000Z</time>
      </trkpt>
      <trkpt lat="48.84654" lon="2.3473">
        <ele>63.200000762939</ele>
        <time>2016-08-01T18:50:58.000Z</time>
      </trkpt>
      <trkpt lat="48.84611" lon="2.34709">
        <ele>63.400001525879</ele>
        <time>2016-08-01T18:51:08.000Z</time>
      </trkpt>
      <trkpt lat="48.84574" lon="2.34691">
        <ele>65.199996948242</ele>
        <time>2016-08-01T18:51:18.000Z</time>
      </trkpt>
      <trkpt lat="48.84579" lon="2.34624">
        <ele>66.800003051758</ele>
        <time>2016-08-01T18:51:36.000Z</time>
      </trkpt>
      <trkpt lat="48.84579" lon="2.3462">
        <ele>67</ele>
        <time>2016-08-01T18:51:37.000Z</time>
      </trkpt>
      <trkpt lat="48.84588" lon="2.34551">
        <ele>69.400001525879</ele>
        <time>2016-08-01T18:51:56.000Z</time>
      </trkpt>
      <trkpt lat="48.84598" lon="2.34483">
        <ele>69</ele>
        <time>2016-08-01T18:52:17.000Z</time>
      </trkpt>
      <trkpt lat="48.84597" lon="2.3447">
        <ele>68.800003051758</ele>
        <time>2016-08-01T18:52:23.000Z</time>
      </trkpt>
      <trkpt lat="48.84628" lon="2.34425">
        <ele>67.199996948242</ele>
        <time>2016-08-01T18:52:45.000Z</time>
      </trkpt>
      <trkpt lat="48.84652" lon="2.34411">
        <ele>66.400001525879</ele>
        <time>2016-08-01T18:53:04.000Z</time>
      </trkpt>
      <trkpt lat="48.8467" lon="2.34346">
        <ele>66.599998474121</ele>
        <time>2016-08-01T18:53:24.000Z</time>
      </trkpt>
      <trkpt lat="48.84676" lon="2.34335">
        <ele>66.400001525879</ele>
        <time>2016-08-01T18:53:39.000Z</time>
      </trkpt>
      <trkpt lat="48.84682" lon="2.34311">
        <ele>66.400001525879</ele>
        <time>2016-08-01T18:53:45.000Z</time>
      </trkpt>
      <trkpt lat="48.84687" lon="2.34292">
        <ele>66.599998474121</ele>
        <time>2016-08-01T18:53:48.000Z</time>
      </trkpt>
      <trkpt lat="48.84704" lon="2.34225">
        <ele>66</ele>
        <time>2016-08-01T18:53:57.000Z</time>
      </trkpt>
      <trkpt lat="48.84722" lon="2.34164">
        <ele>63.599998474121</ele>
        <time>2016-08-01T18:54:05.000Z</time>
      </trkpt>
      <trkpt lat="48.84727" lon="2.34142">
        <ele>62</ele>
        <time>2016-08-01T18:54:08.000Z</time>
      </trkpt>
      <trkpt lat="48.84728" lon="2.34072">
        <ele>58.599998474121</ele>
        <time>2016-08-01T18:54:19.000Z</time>
      </trkpt>
      <trkpt lat="48.84687" lon="2.34043">
        <ele>57.200000762939</ele>
        <time>2016-08-01T18:54:35.000Z</time>
      </trkpt>
      <trkpt lat="48.8464" lon="2.34027">
        <ele>61.200000762939</ele>
        <time>2016-08-01T18:54:49.000Z</time>
      </trkpt>
      <trkpt lat="48.84619" lon="2.34017">
        <ele>62</ele>
        <time>2016-08-01T18:54:54.000Z</time>
      </trkpt>
      <trkpt lat="48.84577" lon="2.33991">
        <ele>62.799999237061</ele>
        <time>2016-08-01T18:55:04.000Z</time>
      </trkpt>
      <trkpt lat="48.84568" lon="2.33986">
        <ele>62.799999237061</ele>
        <time>2016-08-01T18:55:05.000Z</time>
      </trkpt>
      <trkpt lat="48.84519" lon="2.33964">
        <ele>63.400001525879</ele>
        <time>2016-08-01T18:55:15.000Z</time>
      </trkpt>
      <trkpt lat="48.84472" lon="2.3394">
        <ele>63</ele>
        <time>2016-08-01T18:55:22.000Z</time>
      </trkpt>
      <trkpt lat="48.84425" lon="2.33918">
        <ele>61.400001525879</ele>
        <time>2016-08-01T18:55:29.000Z</time>
      </trkpt>
      <trkpt lat="48.84393" lon="2.33894">
        <ele>61.200000762939</ele>
        <time>2016-08-01T18:55:37.000Z</time>
      </trkpt>
      <trkpt lat="48.84411" lon="2.3383">
        <ele>62</ele>
        <time>2016-08-01T18:55:52.000Z</time>
      </trkpt>
      <trkpt lat="48.84425" lon="2.33764">
        <ele>60.599998474121</ele>
        <time>2016-08-01T18:56:03.000Z</time>
      </trkpt>
      <trkpt lat="48.84421" lon="2.33751">
        <ele>60.400001525879</ele>
        <time>2016-08-01T18:56:05.000Z</time>
      </trkpt>
      <trkpt lat="48.84424" lon="2.33682">
        <ele>53</ele>
        <time>2016-08-01T18:56:16.000Z</time>
      </trkpt>
      <trkpt lat="48.8443" lon="2.33608">
        <ele>51</ele>
        <time>2016-08-01T18:56:29.000Z</time>
      </trkpt>
      <trkpt lat="48.84434" lon="2.33535">
        <ele>54.200000762939</ele>
        <time>2016-08-01T18:56:39.000Z</time>
      </trkpt>
      <trkpt lat="48.84439" lon="2.33463">
        <ele>55.400001525879</ele>
        <time>2016-08-01T18:56:48.000Z</time>
      </trkpt>
      <trkpt lat="48.84443" lon="2.33391">
        <ele>53</ele>
        <time>2016-08-01T18:56:57.000Z</time>
      </trkpt>
      <trkpt lat="48.84445" lon="2.33337">
        <ele>52.799999237061</ele>
        <time>2016-08-01T18:57:04.000Z</time>
      </trkpt>
      <trkpt lat="48.84448" lon="2.33302">
        <ele>53.599998474121</ele>
        <time>2016-08-01T18:57:12.000Z</time>
      </trkpt>
      <trkpt lat="48.84476" lon="2.33249">
        <ele>53.200000762939</ele>
        <time>2016-08-01T18:57:26.000Z</time>
      </trkpt>
      <trkpt lat="48.84488" lon="2.33231">
        <ele>52.799999237061</ele>
        <time>2016-08-01T18:57:30.000Z</time>
      </trkpt>
      <trkpt lat="48.845" lon="2.33221">
        <ele>52.599998474121</ele>
        <time>2016-08-01T18:57:33.000Z</time>
      </trkpt>
      <trkpt lat="48.84547" lon="2.33217">
        <ele>53.799999237061</ele>
        <time>2016-08-01T18:57:46.000Z</time>
      </trkpt>
      <trkpt lat="48.84595" lon="2.33222">
        <ele>54.400001525879</ele>
        <time>2016-08-01T18:57:55.000Z</time>
      </trkpt>
      <trkpt lat="48.84618" lon="2.33223">
        <ele>54.200000762939</ele>
        <time>2016-08-01T18:57:59.000Z</time>
      </trkpt>
      <trkpt lat="48.84665" lon="2.33218">
        <ele>54.400001525879</ele>
        <time>2016-08-01T18:58:08.000Z</time>
      </trkpt>
      <trkpt lat="48.84711" lon="2.33224">
        <ele>53.799999237061</ele>
        <time>2016-08-01T18:58:19.000Z</time>
      </trkpt>
      <trkpt lat="48.84756" lon="2.3324">
        <ele>51.799999237061</ele>
        <time>2016-08-01T18:58:41.000Z</time>
      </trkpt>
      <trkpt lat="48.84801" lon="2.3325">
        <ele>51.400001525879</ele>
        <time>2016-08-01T18:58:57.000Z</time>
      </trkpt>
      <trkpt lat="48.84847" lon="2.3326">
        <ele>51.799999237061</ele>
        <time>2016-08-01T18:59:12.000Z</time>
      </trkpt>
      <trkpt lat="48.84869" lon="2.33276">
        <ele>51.799999237061</ele>
        <time>2016-08-01T18:59:34.000Z</time>
      </trkpt>
      <trkpt lat="48.84873" lon="2.33278">
        <ele>51.799999237061</ele>
        <time>2016-08-01T18:59:37.000Z</time>
      </trkpt>
      <trkpt lat="48.8492" lon="2.33275">
        <ele>52.799999237061</ele>
        <time>2016-08-01T18:59:50.000Z</time>
      </trkpt>
      <trkpt lat="48.84967" lon="2.33277">
        <ele>52</ele>
        <time>2016-08-01T19:00:00.000Z</time>
      </trkpt>
      <trkpt lat="48.85015" lon="2.33269">
        <ele>50.400001525879</ele>
        <time>2016-08-01T19:00:10.000Z</time>
      </trkpt>
      <trkpt lat="48.85062" lon="2.33286">
        <ele>49.599998474121</ele>
        <time>2016-08-01T19:00:21.000Z</time>
      </trkpt>
      <trkpt lat="48.85108" lon="2.33291">
        <ele>47.400001525879</ele>
        <time>2016-08-01T19:00:39.000Z</time>
      </trkpt>
      <trkpt lat="48.85118" lon="2.3328">
        <ele>47.200000762939</ele>
        <time>2016-08-01T19:01:02.000Z</time>
      </trkpt>
      <trkpt lat="48.85136" lon="2.33214">
        <ele>47.799999237061</ele>
        <time>2016-08-01T19:01:18.000Z</time>
      </trkpt>
      <trkpt lat="48.85152" lon="2.3315">
        <ele>50</ele>
        <time>2016-08-01T19:01:33.000Z</time>
      </trkpt>
      <trkpt lat="48.85159" lon="2.33111">
        <ele>51.599998474121</ele>
        <time>2016-08-01T19:01:54.000Z</time>
      </trkpt>
      <trkpt lat="48.85181" lon="2.33046">
        <ele>51.599998474121</ele>
        <time>2016-08-01T19:02:09.000Z</time>
      </trkpt>
      <trkpt lat="48.85202" lon="2.32987">
        <ele>48.400001525879</ele>
        <time>2016-08-01T19:02:21.000Z</time>
      </trkpt>
      <trkpt lat="48.85242" lon="2.32962">
        <ele>47.200000762939</ele>
        <time>2016-08-01T19:02:34.000Z</time>
      </trkpt>
      <trkpt lat="48.85248" lon="2.32954">
        <ele>47.400001525879</ele>
        <time>2016-08-01T19:02:36.000Z</time>
      </trkpt>
      <trkpt lat="48.85282" lon="2.32915">
        <ele>49</ele>
        <time>2016-08-01T19:02:47.000Z</time>
      </trkpt>
      <trkpt lat="48.85294" lon="2.32896">
        <ele>49</ele>
        <time>2016-08-01T19:02:51.000Z</time>
      </trkpt>
      <trkpt lat="48.85324" lon="2.32846">
        <ele>49</ele>
        <time>2016-08-01T19:03:01.000Z</time>
      </trkpt>
      <trkpt lat="48.85355" lon="2.32793">
        <ele>48.599998474121</ele>
        <time>2016-08-01T19:03:13.000Z</time>
      </trkpt>
      <trkpt lat="48.85374" lon="2.32747">
        <ele>48.400001525879</ele>
        <time>2016-08-01T19:03:22.000Z</time>
      </trkpt>
      <trkpt lat="48.85404" lon="2.32692">
        <ele>49.200000762939</ele>
        <time>2016-08-01T19:03:33.000Z</time>
      </trkpt>
      <trkpt lat="48.85427" lon="2.32634">
        <ele>49.200000762939</ele>
        <time>2016-08-01T19:03:47.000Z</time>
      </trkpt>
      <trkpt lat="48.85449" lon="2.32571">
        <ele>47.799999237061</ele>
        <time>2016-08-01T19:04:05.000Z</time>
      </trkpt>
      <trkpt lat="48.85469" lon="2.32506">
        <ele>46.400001525879</ele>
        <time>2016-08-01T19:04:21.000Z</time>
      </trkpt>
      <trkpt lat="48.855" lon="2.32456">
        <ele>46.599998474121</ele>
        <time>2016-08-01T19:04:36.000Z</time>
      </trkpt>
      <trkpt lat="48.85531" lon="2.32401">
        <ele>47.599998474121</ele>
        <time>2016-08-01T19:04:51.000Z</time>
      </trkpt>
      <trkpt lat="48.8556" lon="2.32347">
        <ele>45.200000762939</ele>
        <time>2016-08-01T19:05:04.000Z</time>
      </trkpt>
      <trkpt lat="48.85565" lon="2.32345">
        <ele>44.799999237061</ele>
        <time>2016-08-01T19:05:05.000Z</time>
      </trkpt>
      <trkpt lat="48.85569" lon="2.32346">
        <ele>44.599998474121</ele>
        <time>2016-08-01T19:05:08.000Z</time>
      </trkpt>
      <trkpt lat="48.85608" lon="2.32384">
        <ele>45.200000762939</ele>
        <time>2016-08-01T19:05:27.000Z</time>
      </trkpt>
      <trkpt lat="48.85647" lon="2.3242">
        <ele>45.599998474121</ele>
        <time>2016-08-01T19:05:51.000Z</time>
      </trkpt>
      <trkpt lat="48.8569" lon="2.32436">
        <ele>44.200000762939</ele>
        <time>2016-08-01T19:06:10.000Z</time>
      </trkpt>
      <trkpt lat="48.85707" lon="2.3243">
        <ele>43.200000762939</ele>
        <time>2016-08-01T19:06:41.000Z</time>
      </trkpt>
      <trkpt lat="48.8574" lon="2.32384">
        <ele>40.200000762939</ele>
        <time>2016-08-01T19:06:56.000Z</time>
      </trkpt>
      <trkpt lat="48.85777" lon="2.3234">
        <ele>40.400001525879</ele>
        <time>2016-08-01T19:07:10.000Z</time>
      </trkpt>
      <trkpt lat="48.85811" lon="2.32292">
        <ele>42.799999237061</ele>
        <time>2016-08-01T19:07:24.000Z</time>
      </trkpt>
      <trkpt lat="48.85837" lon="2.32233">
        <ele>44.200000762939</ele>
        <time>2016-08-01T19:07:39.000Z</time>
      </trkpt>
      <trkpt lat="48.85853" lon="2.32188">
        <ele>42.799999237061</ele>
        <time>2016-08-01T19:07:48.000Z</time>
      </trkpt>
      <trkpt lat="48.85864" lon="2.32149">
        <ele>41.599998474121</ele>
        <time>2016-08-01T19:07:55.000Z</time>
      </trkpt>
      <trkpt lat="48.85881" lon="2.32092">
        <ele>41.599998474121</ele>
        <time>2016-08-01T19:08:05.000Z</time>
      </trkpt>
      <trkpt lat="48.85899" lon="2.32026">
        <ele>42.799999237061</ele>
        <time>2016-08-01T19:08:16.000Z</time>
      </trkpt>
      <trkpt lat="48.85928" lon="2.31965">
        <ele>43</ele>
        <time>2016-08-01T19:08:28.000Z</time>
      </trkpt>
      <trkpt lat="48.85954" lon="2.31904">
        <ele>41.599998474121</ele>
        <time>2016-08-01T19:08:41.000Z</time>
      </trkpt>
      <trkpt lat="48.85972" lon="2.3184">
        <ele>42.599998474121</ele>
        <time>2016-08-01T19:08:55.000Z</time>
      </trkpt>
      <trkpt lat="48.8598" lon="2.31797">
        <ele>42.599998474121</ele>
        <time>2016-08-01T19:09:26.000Z</time>
      </trkpt>
      <trkpt lat="48.85995" lon="2.31732">
        <ele>40.799999237061</ele>
        <time>2016-08-01T19:09:40.000Z</time>
      </trkpt>
      <trkpt lat="48.85999" lon="2.3166">
        <ele>41.200000762939</ele>
        <time>2016-08-01T19:09:53.000Z</time>
      </trkpt>
      <trkpt lat="48.85999" lon="2.31587">
        <ele>42.200000762939</ele>
        <time>2016-08-01T19:10:08.000Z</time>
      </trkpt>
      <trkpt lat="48.86001" lon="2.31516">
        <ele>39.799999237061</ele>
        <time>2016-08-01T19:10:24.000Z</time>
      </trkpt>
      <trkpt lat="48.85993" lon="2.31455">
        <ele>36</ele>
        <time>2016-08-01T19:11:20.000Z</time>
      </trkpt>
      <trkpt lat="48.85994" lon="2.31461">
        <ele>36.599998474121</ele>
        <time>2016-08-01T19:11:26.000Z</time>
      </trkpt>
      <trkpt lat="48.85965" lon="2.31492">
        <ele>37</ele>
        <time>2016-08-01T19:11:57.000Z</time>
      </trkpt>
      <trkpt lat="48.85919" lon="2.31481">
        <ele>36.400001525879</ele>
        <time>2016-08-01T19:12:16.000Z</time>
      </trkpt>
      <trkpt lat="48.85892" lon="2.31473">
        <ele>37.200000762939</ele>
        <time>2016-08-01T19:12:28.000Z</time>
      </trkpt>
      <trkpt lat="48.85886" lon="2.31518">
        <ele>37.799999237061</ele>
        <time>2016-08-01T19:12:40.000Z</time>
      </trkpt>
      <trkpt lat="48.8584" lon="2.31518">
        <ele>37.799999237061</ele>
        <time>2016-08-01T19:12:54.000Z</time>
      </trkpt>
      <trkpt lat="48.85804" lon="2.31523">
        <ele>37</ele>
        <time>2016-08-01T19:13:05.000Z</time>
      </trkpt>
      <trkpt lat="48.8579" lon="2.3159">
        <ele>39.799999237061</ele>
        <time>2016-08-01T19:13:20.000Z</time>
      </trkpt>
      <trkpt lat="48.85779" lon="2.31661">
        <ele>41.799999237061</ele>
        <time>2016-08-01T19:13:33.000Z</time>
      </trkpt>
      <trkpt lat="48.85767" lon="2.31717">
        <ele>44.200000762939</ele>
        <time>2016-08-01T19:13:43.000Z</time>
      </trkpt>
      <trkpt lat="48.85749" lon="2.3178">
        <ele>46.599998474121</ele>
        <time>2016-08-01T19:13:58.000Z</time>
      </trkpt>
      <trkpt lat="48.85731" lon="2.31848">
        <ele>47.200000762939</ele>
        <time>2016-08-01T19:14:12.000Z</time>
      </trkpt>
      <trkpt lat="48.8572" lon="2.3188">
        <ele>46.400001525879</ele>
        <time>2016-08-01T19:14:18.000Z</time>
      </trkpt>
      <trkpt lat="48.85698" lon="2.31941">
        <ele>45.799999237061</ele>
        <time>2016-08-01T19:14:28.000Z</time>
      </trkpt>
      <trkpt lat="48.85683" lon="2.32007">
        <ele>44.400001525879</ele>
        <time>2016-08-01T19:14:44.000Z</time>
      </trkpt>
      <trkpt lat="48.85684" lon="2.32006">
        <ele>44.400001525879</ele>
        <time>2016-08-01T19:14:47.000Z</time>
      </trkpt>
      <trkpt lat="48.85704" lon="2.3194">
        <ele>45.799999237061</ele>
        <time>2016-08-01T19:15:07.000Z</time>
      </trkpt>
      <trkpt lat="48.85723" lon="2.31878">
        <ele>46.200000762939</ele>
        <time>2016-08-01T19:15:19.000Z</time>
      </trkpt>
      <trkpt lat="48.85743" lon="2.31814">
        <ele>47.599998474121</ele>
        <time>2016-08-01T19:15:31.000Z</time>
      </trkpt>
      <trkpt lat="48.85762" lon="2.3175">
        <ele>45.400001525879</ele>
        <time>2016-08-01T19:15:45.000Z</time>
      </trkpt>
      <trkpt lat="48.85781" lon="2.31686">
        <ele>42.400001525879</ele>
        <time>2016-08-01T19:15:59.000Z</time>
      </trkpt>
      <trkpt lat="48.85787" lon="2.31649">
        <ele>41.200000762939</ele>
        <time>2016-08-01T19:16:05.000Z</time>
      </trkpt>
      <trkpt lat="48.85788" lon="2.3163">
        <ele>40.599998474121</ele>
        <time>2016-08-01T19:16:08.000Z</time>
      </trkpt>
      <trkpt lat="48.85792" lon="2.31602">
        <ele>39.799999237061</ele>
        <time>2016-08-01T19:16:12.000Z</time>
      </trkpt>
      <trkpt lat="48.858" lon="2.31555">
        <ele>38.400001525879</ele>
        <time>2016-08-01T19:16:19.000Z</time>
      </trkpt>
      <trkpt lat="48.85802" lon="2.31541">
        <ele>37.799999237061</ele>
        <time>2016-08-01T19:16:21.000Z</time>
      </trkpt>
      <trkpt lat="48.8581" lon="2.31475">
        <ele>36.599998474121</ele>
        <time>2016-08-01T19:16:31.000Z</time>
      </trkpt>
      <trkpt lat="48.85814" lon="2.31463">
        <ele>36.599998474121</ele>
        <time>2016-08-01T19:16:33.000Z</time>
      </trkpt>
      <trkpt lat="48.85831" lon="2.31439">
        <ele>37.200000762939</ele>
        <time>2016-08-01T19:16:38.000Z</time>
      </trkpt>
      <trkpt lat="48.85838" lon="2.3142">
        <ele>37.400001525879</ele>
        <time>2016-08-01T19:16:41.000Z</time>
      </trkpt>
      <trkpt lat="48.85843" lon="2.31361">
        <ele>34</ele>
        <time>2016-08-01T19:16:50.000Z</time>
      </trkpt>
      <trkpt lat="48.85846" lon="2.31348">
        <ele>33.400001525879</ele>
        <time>2016-08-01T19:16:52.000Z</time>
      </trkpt>
      <trkpt lat="48.85869" lon="2.31327">
        <ele>32</ele>
        <time>2016-08-01T19:16:58.000Z</time>
      </trkpt>
      <trkpt lat="48.85888" lon="2.31305">
        <ele>30.39999961853</ele>
        <time>2016-08-01T19:17:03.000Z</time>
      </trkpt>
      <trkpt lat="48.85901" lon="2.31302">
        <ele>29.39999961853</ele>
        <time>2016-08-01T19:17:06.000Z</time>
      </trkpt>
      <trkpt lat="48.8595" lon="2.31308">
        <ele>28</ele>
        <time>2016-08-01T19:17:15.000Z</time>
      </trkpt>
      <trkpt lat="48.85972" lon="2.31309">
        <ele>28.200000762939</ele>
        <time>2016-08-01T19:17:19.000Z</time>
      </trkpt>
      <trkpt lat="48.85997" lon="2.31313">
        <ele>28.39999961853</ele>
        <time>2016-08-01T19:17:23.000Z</time>
      </trkpt>
      <trkpt lat="48.86046" lon="2.31318">
        <ele>31.799999237061</ele>
        <time>2016-08-01T19:17:30.000Z</time>
      </trkpt>
      <trkpt lat="48.86054" lon="2.3132">
        <ele>32.799999237061</ele>
        <time>2016-08-01T19:17:31.000Z</time>
      </trkpt>
      <trkpt lat="48.86106" lon="2.31329">
        <ele>39.799999237061</ele>
        <time>2016-08-01T19:17:38.000Z</time>
      </trkpt>
      <trkpt lat="48.86151" lon="2.31333">
        <ele>35.200000762939</ele>
        <time>2016-08-01T19:17:44.000Z</time>
      </trkpt>
      <trkpt lat="48.862" lon="2.31339">
        <ele>30.799999237061</ele>
        <time>2016-08-01T19:17:51.000Z</time>
      </trkpt>
      <trkpt lat="48.86245" lon="2.31345">
        <ele>31.60000038147</ele>
        <time>2016-08-01T19:17:58.000Z</time>
      </trkpt>
      <trkpt lat="48.86293" lon="2.3135">
        <ele>34.200000762939</ele>
        <time>2016-08-01T19:18:07.000Z</time>
      </trkpt>
      <trkpt lat="48.86309" lon="2.31352">
        <ele>34.200000762939</ele>
        <time>2016-08-01T19:18:11.000Z</time>
      </trkpt>
      <trkpt lat="48.86355" lon="2.31359">
        <ele>34</ele>
        <time>2016-08-01T19:18:25.000Z</time>
      </trkpt>
      <trkpt lat="48.86402" lon="2.31364">
        <ele>31.200000762939</ele>
        <time>2016-08-01T19:18:41.000Z</time>
      </trkpt>
      <trkpt lat="48.86447" lon="2.31375">
        <ele>31.60000038147</ele>
        <time>2016-08-01T19:18:58.000Z</time>
      </trkpt>
      <trkpt lat="48.86448" lon="2.31377">
        <ele>31.60000038147</ele>
        <time>2016-08-01T19:18:59.000Z</time>
      </trkpt>
      <trkpt lat="48.86455" lon="2.31387">
        <ele>31.799999237061</ele>
        <time>2016-08-01T19:19:58.000Z</time>
      </trkpt>
      <trkpt lat="48.86469" lon="2.31391">
        <ele>33</ele>
        <time>2016-08-01T19:20:53.000Z</time>
      </trkpt>
      <trkpt lat="48.86516" lon="2.31387">
        <ele>38</ele>
        <time>2016-08-01T19:21:12.000Z</time>
      </trkpt>
      <trkpt lat="48.86564" lon="2.31393">
        <ele>40</ele>
        <time>2016-08-01T19:21:28.000Z</time>
      </trkpt>
      <trkpt lat="48.86609" lon="2.31387">
        <ele>42.400001525879</ele>
        <time>2016-08-01T19:21:42.000Z</time>
      </trkpt>
      <trkpt lat="48.86621" lon="2.31387">
        <ele>41.599998474121</ele>
        <time>2016-08-01T19:21:45.000Z</time>
      </trkpt>
      <trkpt lat="48.86668" lon="2.31392">
        <ele>37.599998474121</ele>
        <time>2016-08-01T19:21:56.000Z</time>
      </trkpt>
      <trkpt lat="48.86713" lon="2.31404">
        <ele>35.799999237061</ele>
        <time>2016-08-01T19:22:08.000Z</time>
      </trkpt>
      <trkpt lat="48.86751" lon="2.31411">
        <ele>35.799999237061</ele>
        <time>2016-08-01T19:22:51.000Z</time>
      </trkpt>
      <trkpt lat="48.86794" lon="2.31399">
        <ele>37</ele>
        <time>2016-08-01T19:23:13.000Z</time>
      </trkpt>
      <trkpt lat="48.86797" lon="2.31407">
        <ele>36.799999237061</ele>
        <time>2016-08-01T19:23:17.000Z</time>
      </trkpt>
      <trkpt lat="48.86836" lon="2.31442">
        <ele>37.599998474121</ele>
        <time>2016-08-01T19:23:36.000Z</time>
      </trkpt>
      <trkpt lat="48.86844" lon="2.31448">
        <ele>37.799999237061</ele>
        <time>2016-08-01T19:23:41.000Z</time>
      </trkpt>
      <trkpt lat="48.86888" lon="2.31462">
        <ele>38</ele>
        <time>2016-08-01T19:23:58.000Z</time>
      </trkpt>
      <trkpt lat="48.86905" lon="2.31459">
        <ele>38.200000762939</ele>
        <time>2016-08-01T19:24:05.000Z</time>
      </trkpt>
      <trkpt lat="48.8692" lon="2.31471">
        <ele>38.200000762939</ele>
        <time>2016-08-01T19:24:13.000Z</time>
      </trkpt>
      <trkpt lat="48.86964" lon="2.31502">
        <ele>38.799999237061</ele>
        <time>2016-08-01T19:24:28.000Z</time>
      </trkpt>
      <trkpt lat="48.87005" lon="2.31535">
        <ele>40.400001525879</ele>
        <time>2016-08-01T19:24:40.000Z</time>
      </trkpt>
      <trkpt lat="48.87046" lon="2.31569">
        <ele>40.799999237061</ele>
        <time>2016-08-01T19:24:52.000Z</time>
      </trkpt>
      <trkpt lat="48.87087" lon="2.316">
        <ele>40.200000762939</ele>
        <time>2016-08-01T19:25:07.000Z</time>
      </trkpt>
      <trkpt lat="48.87102" lon="2.31607">
        <ele>40</ele>
        <time>2016-08-01T19:25:16.000Z</time>
      </trkpt>
      <trkpt lat="48.87109" lon="2.31614">
        <ele>40.200000762939</ele>
        <time>2016-08-01T19:25:20.000Z</time>
      </trkpt>
      <trkpt lat="48.87112" lon="2.31675">
        <ele>40.400001525879</ele>
        <time>2016-08-01T19:25:35.000Z</time>
      </trkpt>
      <trkpt lat="48.87124" lon="2.31713">
        <ele>41.400001525879</ele>
        <time>2016-08-01T19:25:41.000Z</time>
      </trkpt>
      <trkpt lat="48.87144" lon="2.31778">
        <ele>42.799999237061</ele>
        <time>2016-08-01T19:25:55.000Z</time>
      </trkpt>
      <trkpt lat="48.87166" lon="2.31838">
        <ele>44.599998474121</ele>
        <time>2016-08-01T19:26:10.000Z</time>
      </trkpt>
      <trkpt lat="48.87212" lon="2.31813">
        <ele>45.200000762939</ele>
        <time>2016-08-01T19:26:22.000Z</time>
      </trkpt>
      <trkpt lat="48.87257" lon="2.3181">
        <ele>45.799999237061</ele>
        <time>2016-08-01T19:26:33.000Z</time>
      </trkpt>
      <trkpt lat="48.87305" lon="2.31806">
        <ele>44.599998474121</ele>
        <time>2016-08-01T19:26:46.000Z</time>
      </trkpt>
      <trkpt lat="48.8735" lon="2.31795">
        <ele>43.200000762939</ele>
        <time>2016-08-01T19:27:02.000Z</time>
      </trkpt>
      <trkpt lat="48.87396" lon="2.31777">
        <ele>44</ele>
        <time>2016-08-01T19:27:13.000Z</time>
      </trkpt>
      <trkpt lat="48.8742" lon="2.31764">
        <ele>45</ele>
        <time>2016-08-01T19:27:28.000Z</time>
      </trkpt>
      <trkpt lat="48.87438" lon="2.31828">
        <ele>46</ele>
        <time>2016-08-01T19:27:44.000Z</time>
      </trkpt>
      <trkpt lat="48.87452" lon="2.31895">
        <ele>45.599998474121</ele>
        <time>2016-08-01T19:27:59.000Z</time>
      </trkpt>
      <trkpt lat="48.87455" lon="2.31903">
        <ele>45.599998474121</ele>
        <time>2016-08-01T19:28:02.000Z</time>
      </trkpt>
      <trkpt lat="48.87499" lon="2.31932">
        <ele>45</ele>
        <time>2016-08-01T19:28:28.000Z</time>
      </trkpt>
      <trkpt lat="48.8752" lon="2.3192">
        <ele>44.200000762939</ele>
        <time>2016-08-01T19:28:38.000Z</time>
      </trkpt>
      <trkpt lat="48.87565" lon="2.31897">
        <ele>44</ele>
        <time>2016-08-01T19:28:50.000Z</time>
      </trkpt>
      <trkpt lat="48.87603" lon="2.31852">
        <ele>46.599998474121</ele>
        <time>2016-08-01T19:29:03.000Z</time>
      </trkpt>
      <trkpt lat="48.87605" lon="2.31849">
        <ele>46.799999237061</ele>
        <time>2016-08-01T19:29:04.000Z</time>
      </trkpt>
      <trkpt lat="48.87639" lon="2.31797">
        <ele>49.599998474121</ele>
        <time>2016-08-01T19:29:18.000Z</time>
      </trkpt>
      <trkpt lat="48.87673" lon="2.31751">
        <ele>51.599998474121</ele>
        <time>2016-08-01T19:29:35.000Z</time>
      </trkpt>
      <trkpt lat="48.87706" lon="2.31703">
        <ele>51.599998474121</ele>
        <time>2016-08-01T19:29:49.000Z</time>
      </trkpt>
      <trkpt lat="48.87744" lon="2.31656">
        <ele>51.799999237061</ele>
        <time>2016-08-01T19:30:02.000Z</time>
      </trkpt>
      <trkpt lat="48.87756" lon="2.3165">
        <ele>52.200000762939</ele>
        <time>2016-08-01T19:30:07.000Z</time>
      </trkpt>
      <trkpt lat="48.8777" lon="2.31721">
        <ele>52.599998474121</ele>
        <time>2016-08-01T19:30:23.000Z</time>
      </trkpt>
      <trkpt lat="48.87798" lon="2.31774">
        <ele>54.799999237061</ele>
        <time>2016-08-01T19:31:37.000Z</time>
      </trkpt>
      <trkpt lat="48.87808" lon="2.31845">
        <ele>57.200000762939</ele>
        <time>2016-08-01T19:31:56.000Z</time>
      </trkpt>
      <trkpt lat="48.8782" lon="2.31915">
        <ele>57.599998474121</ele>
        <time>2016-08-01T19:32:08.000Z</time>
      </trkpt>
      <trkpt lat="48.87829" lon="2.31974">
        <ele>57.200000762939</ele>
        <time>2016-08-01T19:32:20.000Z</time>
      </trkpt>
      <trkpt lat="48.87816" lon="2.31978">
        <ele>56.799999237061</ele>
        <time>2016-08-01T19:34:20.000Z</time>
      </trkpt>
      <trkpt lat="48.87816" lon="2.31985">
        <ele>56.599998474121</ele>
        <time>2016-08-01T19:34:24.000Z</time>
      </trkpt>
      <trkpt lat="48.87813" lon="2.31993">
        <ele>56.400001525879</ele>
        <time>2016-08-01T19:34:27.000Z</time>
      </trkpt>
      <trkpt lat="48.87784" lon="2.32046">
        <ele>57.599998474121</ele>
        <time>2016-08-01T19:34:42.000Z</time>
      </trkpt>
      <trkpt lat="48.87751" lon="2.32102">
        <ele>57.200000762939</ele>
        <time>2016-08-01T19:34:54.000Z</time>
      </trkpt>
      <trkpt lat="48.87721" lon="2.32154">
        <ele>56</ele>
        <time>2016-08-01T19:35:05.000Z</time>
      </trkpt>
      <trkpt lat="48.87679" lon="2.32189">
        <ele>51.200000762939</ele>
        <time>2016-08-01T19:35:15.000Z</time>
      </trkpt>
      <trkpt lat="48.87639" lon="2.32231">
        <ele>48.599998474121</ele>
        <time>2016-08-01T19:35:26.000Z</time>
      </trkpt>
      <trkpt lat="48.87599" lon="2.32268">
        <ele>46.599998474121</ele>
        <time>2016-08-01T19:35:37.000Z</time>
      </trkpt>
      <trkpt lat="48.87567" lon="2.32317">
        <ele>44.200000762939</ele>
        <time>2016-08-01T19:35:50.000Z</time>
      </trkpt>
      <trkpt lat="48.87557" lon="2.32374">
        <ele>41.599998474121</ele>
        <time>2016-08-01T19:36:49.000Z</time>
      </trkpt>
      <trkpt lat="48.8755" lon="2.32386">
        <ele>41.799999237061</ele>
        <time>2016-08-01T19:37:20.000Z</time>
      </trkpt>
      <trkpt lat="48.87532" lon="2.32391">
        <ele>43</ele>
        <time>2016-08-01T19:37:28.000Z</time>
      </trkpt>
      <trkpt lat="48.87529" lon="2.32399">
        <ele>43</ele>
        <time>2016-08-01T19:37:30.000Z</time>
      </trkpt>
      <trkpt lat="48.87534" lon="2.32471">
        <ele>42.400001525879</ele>
        <time>2016-08-01T19:37:44.000Z</time>
      </trkpt>
      <trkpt lat="48.87544" lon="2.32542">
        <ele>42.799999237061</ele>
        <time>2016-08-01T19:37:56.000Z</time>
      </trkpt>
      <trkpt lat="48.87557" lon="2.32611">
        <ele>42.799999237061</ele>
        <time>2016-08-01T19:38:09.000Z</time>
      </trkpt>
      <trkpt lat="48.87563" lon="2.32684">
        <ele>43.599998474121</ele>
        <time>2016-08-01T19:38:23.000Z</time>
      </trkpt>
      <trkpt lat="48.87564" lon="2.32698">
        <ele>44.200000762939</ele>
        <time>2016-08-01T19:38:25.000Z</time>
      </trkpt>
      <trkpt lat="48.87575" lon="2.32773">
        <ele>44.200000762939</ele>
        <time>2016-08-01T19:38:35.000Z</time>
      </trkpt>
      <trkpt lat="48.87586" lon="2.32835">
        <ele>44.400001525879</ele>
        <time>2016-08-01T19:38:42.000Z</time>
      </trkpt>
      <trkpt lat="48.87591" lon="2.32866">
        <ele>44.799999237061</ele>
        <time>2016-08-01T19:38:45.000Z</time>
      </trkpt>
      <trkpt lat="48.87598" lon="2.32935">
        <ele>46</ele>
        <time>2016-08-01T19:38:51.000Z</time>
      </trkpt>
      <trkpt lat="48.87602" lon="2.3297">
        <ele>46.599998474121</ele>
        <time>2016-08-01T19:38:54.000Z</time>
      </trkpt>
      <trkpt lat="48.87612" lon="2.33036">
        <ele>46.599998474121</ele>
        <time>2016-08-01T19:39:00.000Z</time>
      </trkpt>
      <trkpt lat="48.87623" lon="2.33105">
        <ele>45.400001525879</ele>
        <time>2016-08-01T19:39:08.000Z</time>
      </trkpt>
      <trkpt lat="48.87627" lon="2.33107">
        <ele>45.400001525879</ele>
        <time>2016-08-01T19:39:19.000Z</time>
      </trkpt>
      <trkpt lat="48.87639" lon="2.33173">
        <ele>45.599998474121</ele>
        <time>2016-08-01T19:39:36.000Z</time>
      </trkpt>
      <trkpt lat="48.87634" lon="2.33185">
        <ele>46.200000762939</ele>
        <time>2016-08-01T19:39:39.000Z</time>
      </trkpt>
      <trkpt lat="48.87588" lon="2.33203">
        <ele>46.599998474121</ele>
        <time>2016-08-01T19:39:49.000Z</time>
      </trkpt>
      <trkpt lat="48.87552" lon="2.33217">
        <ele>46.400001525879</ele>
        <time>2016-08-01T19:39:55.000Z</time>
      </trkpt>
      <trkpt lat="48.87507" lon="2.33237">
        <ele>47</ele>
        <time>2016-08-01T19:40:02.000Z</time>
      </trkpt>
      <trkpt lat="48.87459" lon="2.33257">
        <ele>49.400001525879</ele>
        <time>2016-08-01T19:40:09.000Z</time>
      </trkpt>
      <trkpt lat="48.87423" lon="2.33272">
        <ele>48.799999237061</ele>
        <time>2016-08-01T19:40:15.000Z</time>
      </trkpt>
      <trkpt lat="48.87389" lon="2.33288">
        <ele>47.799999237061</ele>
        <time>2016-08-01T19:40:22.000Z</time>
      </trkpt>
      <trkpt lat="48.87344" lon="2.33307">
        <ele>45</ele>
        <time>2016-08-01T19:40:36.000Z</time>
      </trkpt>
      <trkpt lat="48.87314" lon="2.33327">
        <ele>45.599998474121</ele>
        <time>2016-08-01T19:41:00.000Z</time>
      </trkpt>
      <trkpt lat="48.87285" lon="2.33342">
        <ele>47.599998474121</ele>
        <time>2016-08-01T19:41:09.000Z</time>
      </trkpt>
      <trkpt lat="48.87272" lon="2.33348">
        <ele>48.400001525879</ele>
        <time>2016-08-01T19:41:12.000Z</time>
      </trkpt>
      <trkpt lat="48.87224" lon="2.33363">
        <ele>51.200000762939</ele>
        <time>2016-08-01T19:41:22.000Z</time>
      </trkpt>
      <trkpt lat="48.87193" lon="2.33377">
        <ele>49.799999237061</ele>
        <time>2016-08-01T19:41:28.000Z</time>
      </trkpt>
      <trkpt lat="48.87146" lon="2.334">
        <ele>48.200000762939</ele>
        <time>2016-08-01T19:41:38.000Z</time>
      </trkpt>
      <trkpt lat="48.87105" lon="2.33434">
        <ele>48.200000762939</ele>
        <time>2016-08-01T19:41:52.000Z</time>
      </trkpt>
      <trkpt lat="48.87117" lon="2.335">
        <ele>49.200000762939</ele>
        <time>2016-08-01T19:42:04.000Z</time>
      </trkpt>
      <trkpt lat="48.87127" lon="2.33536">
        <ele>50.400001525879</ele>
        <time>2016-08-01T19:42:10.000Z</time>
      </trkpt>
      <trkpt lat="48.87131" lon="2.33551">
        <ele>51</ele>
        <time>2016-08-01T19:42:12.000Z</time>
      </trkpt>
      <trkpt lat="48.87135" lon="2.33578">
        <ele>52</ele>
        <time>2016-08-01T19:42:15.000Z</time>
      </trkpt>
      <trkpt lat="48.87139" lon="2.33597">
        <ele>51.799999237061</ele>
        <time>2016-08-01T19:42:17.000Z</time>
      </trkpt>
      <trkpt lat="48.87155" lon="2.33664">
        <ele>52.200000762939</ele>
        <time>2016-08-01T19:42:24.000Z</time>
      </trkpt>
      <trkpt lat="48.87174" lon="2.33729">
        <ele>50</ele>
        <time>2016-08-01T19:42:40.000Z</time>
      </trkpt>
      <trkpt lat="48.87179" lon="2.33798">
        <ele>50</ele>
        <time>2016-08-01T19:42:54.000Z</time>
      </trkpt>
      <trkpt lat="48.87193" lon="2.33869">
        <ele>50</ele>
        <time>2016-08-01T19:43:07.000Z</time>
      </trkpt>
      <trkpt lat="48.87202" lon="2.3394">
        <ele>49.200000762939</ele>
        <time>2016-08-01T19:43:20.000Z</time>
      </trkpt>
      <trkpt lat="48.8721" lon="2.3398">
        <ele>48.200000762939</ele>
        <time>2016-08-01T19:43:32.000Z</time>
      </trkpt>
      <trkpt lat="48.87243" lon="2.34024">
        <ele>47.599998474121</ele>
        <time>2016-08-01T19:43:51.000Z</time>
      </trkpt>
      <trkpt lat="48.87271" lon="2.34027">
        <ele>47.400001525879</ele>
        <time>2016-08-01T19:44:14.000Z</time>
      </trkpt>
      <trkpt lat="48.87265" lon="2.34017">
        <ele>47.400001525879</ele>
        <time>2016-08-01T19:44:47.000Z</time>
      </trkpt>
      <trkpt lat="48.87265" lon="2.34024">
        <ele>47.400001525879</ele>
        <time>2016-08-01T19:45:21.000Z</time>
      </trkpt>
      <trkpt lat="48.87259" lon="2.34023">
        <ele>47.400001525879</ele>
        <time>2016-08-01T19:46:16.000Z</time>
      </trkpt>
      <trkpt lat="48.87256" lon="2.34021">
        <ele>47.400001525879</ele>
        <time>2016-08-01T19:46:20.000Z</time>
      </trkpt>
      <trkpt lat="48.87211" lon="2.34014">
        <ele>48</ele>
        <time>2016-08-01T19:46:45.000Z</time>
      </trkpt>
      <trkpt lat="48.87199" lon="2.34017">
        <ele>48.400001525879</ele>
        <time>2016-08-01T19:47:01.000Z</time>
      </trkpt>
      <trkpt lat="48.87188" lon="2.34079">
        <ele>51</ele>
        <time>2016-08-01T19:47:18.000Z</time>
      </trkpt>
      <trkpt lat="48.87186" lon="2.34149">
        <ele>49.200000762939</ele>
        <time>2016-08-01T19:47:31.000Z</time>
      </trkpt>
      <trkpt lat="48.87181" lon="2.34205">
        <ele>49</ele>
        <time>2016-08-01T19:47:41.000Z</time>
      </trkpt>
      <trkpt lat="48.87169" lon="2.34273">
        <ele>48.200000762939</ele>
        <time>2016-08-01T19:47:55.000Z</time>
      </trkpt>
      <trkpt lat="48.87164" lon="2.343">
        <ele>47.400001525879</ele>
        <time>2016-08-01T19:48:23.000Z</time>
      </trkpt>
      <trkpt lat="48.8721" lon="2.34307">
        <ele>47.400001525879</ele>
        <time>2016-08-01T19:48:37.000Z</time>
      </trkpt>
      <trkpt lat="48.87255" lon="2.34307">
        <ele>46.799999237061</ele>
        <time>2016-08-01T19:48:49.000Z</time>
      </trkpt>
      <trkpt lat="48.87266" lon="2.34314">
        <ele>46.400001525879</ele>
        <time>2016-08-01T19:48:55.000Z</time>
      </trkpt>
      <trkpt lat="48.87256" lon="2.34384">
        <ele>46.799999237061</ele>
        <time>2016-08-01T19:49:09.000Z</time>
      </trkpt>
      <trkpt lat="48.8725" lon="2.34455">
        <ele>48</ele>
        <time>2016-08-01T19:49:22.000Z</time>
      </trkpt>
      <trkpt lat="48.87244" lon="2.34525">
        <ele>48.400001525879</ele>
        <time>2016-08-01T19:49:36.000Z</time>
      </trkpt>
      <trkpt lat="48.87236" lon="2.34593">
        <ele>49.599998474121</ele>
        <time>2016-08-01T19:49:47.000Z</time>
      </trkpt>
      <trkpt lat="48.87235" lon="2.34607">
        <ele>50</ele>
        <time>2016-08-01T19:49:49.000Z</time>
      </trkpt>
      <trkpt lat="48.87233" lon="2.34643">
        <ele>50.400001525879</ele>
        <time>2016-08-01T19:49:54.000Z</time>
      </trkpt>
      <trkpt lat="48.87224" lon="2.34715">
        <ele>50</ele>
        <time>2016-08-01T19:50:06.000Z</time>
      </trkpt>
      <trkpt lat="48.87209" lon="2.34781">
        <ele>49.400001525879</ele>
        <time>2016-08-01T19:50:17.000Z</time>
      </trkpt>
      <trkpt lat="48.87191" lon="2.34849">
        <ele>51.799999237061</ele>
        <time>2016-08-01T19:50:30.000Z</time>
      </trkpt>
      <trkpt lat="48.87178" lon="2.34915">
        <ele>50.599998474121</ele>
        <time>2016-08-01T19:50:41.000Z</time>
      </trkpt>
      <trkpt lat="48.8717" lon="2.34964">
        <ele>50.400001525879</ele>
        <time>2016-08-01T19:50:48.000Z</time>
      </trkpt>
      <trkpt lat="48.87156" lon="2.35033">
        <ele>49.400001525879</ele>
        <time>2016-08-01T19:51:00.000Z</time>
      </trkpt>
      <trkpt lat="48.87141" lon="2.35098">
        <ele>50.400001525879</ele>
        <time>2016-08-01T19:51:11.000Z</time>
      </trkpt>
      <trkpt lat="48.87128" lon="2.35167">
        <ele>50.799999237061</ele>
        <time>2016-08-01T19:51:21.000Z</time>
      </trkpt>
      <trkpt lat="48.87119" lon="2.35235">
        <ele>50.599998474121</ele>
        <time>2016-08-01T19:51:30.000Z</time>
      </trkpt>
      <trkpt lat="48.87104" lon="2.35303">
        <ele>49.599998474121</ele>
        <time>2016-08-01T19:51:41.000Z</time>
      </trkpt>
      <trkpt lat="48.87095" lon="2.35371">
        <ele>47.799999237061</ele>
        <time>2016-08-01T19:51:55.000Z</time>
      </trkpt>
      <trkpt lat="48.87083" lon="2.35437">
        <ele>48</ele>
        <time>2016-08-01T19:52:09.000Z</time>
      </trkpt>
      <trkpt lat="48.87073" lon="2.35467">
        <ele>47.799999237061</ele>
        <time>2016-08-01T19:52:18.000Z</time>
      </trkpt>
      <trkpt lat="48.87068" lon="2.3547">
        <ele>48</ele>
        <time>2016-08-01T19:52:21.000Z</time>
      </trkpt>
      <trkpt lat="48.87061" lon="2.35484">
        <ele>48.400001525879</ele>
        <time>2016-08-01T19:53:05.000Z</time>
      </trkpt>
      <trkpt lat="48.87065" lon="2.35494">
        <ele>48.400001525879</ele>
        <time>2016-08-01T19:53:08.000Z</time>
      </trkpt>
      <trkpt lat="48.87107" lon="2.35525">
        <ele>47.400001525879</ele>
        <time>2016-08-01T19:53:22.000Z</time>
      </trkpt>
      <trkpt lat="48.8715" lon="2.35547">
        <ele>46.599998474121</ele>
        <time>2016-08-01T19:53:36.000Z</time>
      </trkpt>
      <trkpt lat="48.87197" lon="2.35568">
        <ele>45.799999237061</ele>
        <time>2016-08-01T19:53:49.000Z</time>
      </trkpt>
      <trkpt lat="48.87215" lon="2.35594">
        <ele>46.200000762939</ele>
        <time>2016-08-01T19:53:56.000Z</time>
      </trkpt>
      <trkpt lat="48.87193" lon="2.35656">
        <ele>47.799999237061</ele>
        <time>2016-08-01T19:54:07.000Z</time>
      </trkpt>
      <trkpt lat="48.87178" lon="2.35711">
        <ele>49</ele>
        <time>2016-08-01T19:55:05.000Z</time>
      </trkpt>
      <trkpt lat="48.87176" lon="2.35715">
        <ele>49</ele>
        <time>2016-08-01T19:55:08.000Z</time>
      </trkpt>
      <trkpt lat="48.87149" lon="2.35771">
        <ele>46.200000762939</ele>
        <time>2016-08-01T19:55:23.000Z</time>
      </trkpt>
      <trkpt lat="48.87133" lon="2.35803">
        <ele>45.400001525879</ele>
        <time>2016-08-01T19:56:55.000Z</time>
      </trkpt>
      <trkpt lat="48.87104" lon="2.35856">
        <ele>47.799999237061</ele>
        <time>2016-08-01T19:57:15.000Z</time>
      </trkpt>
      <trkpt lat="48.87073" lon="2.35908">
        <ele>48.400001525879</ele>
        <time>2016-08-01T19:57:31.000Z</time>
      </trkpt>
      <trkpt lat="48.8704" lon="2.3596">
        <ele>47.200000762939</ele>
        <time>2016-08-01T19:57:45.000Z</time>
      </trkpt>
      <trkpt lat="48.8701" lon="2.36012">
        <ele>47.400001525879</ele>
        <time>2016-08-01T19:57:57.000Z</time>
      </trkpt>
      <trkpt lat="48.86981" lon="2.3607">
        <ele>48.799999237061</ele>
        <time>2016-08-01T19:58:09.000Z</time>
      </trkpt>
      <trkpt lat="48.86951" lon="2.36123">
        <ele>49</ele>
        <time>2016-08-01T19:58:20.000Z</time>
      </trkpt>
      <trkpt lat="48.86924" lon="2.36179">
        <ele>47.599998474121</ele>
        <time>2016-08-01T19:58:32.000Z</time>
      </trkpt>
      <trkpt lat="48.869" lon="2.3624">
        <ele>46.599998474121</ele>
        <time>2016-08-01T19:58:47.000Z</time>
      </trkpt>
      <trkpt lat="48.86863" lon="2.36281">
        <ele>44.200000762939</ele>
        <time>2016-08-01T19:59:06.000Z</time>
      </trkpt>
      <trkpt lat="48.86855" lon="2.36293">
        <ele>43.200000762939</ele>
        <time>2016-08-01T19:59:19.000Z</time>
      </trkpt>
      <trkpt lat="48.8684" lon="2.36331">
        <ele>41</ele>
        <time>2016-08-01T19:59:30.000Z</time>
      </trkpt>
      <trkpt lat="48.86808" lon="2.36382">
        <ele>41</ele>
        <time>2016-08-01T19:59:44.000Z</time>
      </trkpt>
      <trkpt lat="48.86778" lon="2.36434">
        <ele>39.799999237061</ele>
        <time>2016-08-01T19:59:56.000Z</time>
      </trkpt>
      <trkpt lat="48.86746" lon="2.36488">
        <ele>41</ele>
        <time>2016-08-01T20:00:10.000Z</time>
      </trkpt>
      <trkpt lat="48.86714" lon="2.36536">
        <ele>42.400001525879</ele>
        <time>2016-08-01T20:00:26.000Z</time>
      </trkpt>
      <trkpt lat="48.86696" lon="2.36527">
        <ele>41.599998474121</ele>
        <time>2016-08-01T20:00:43.000Z</time>
      </trkpt>
      <trkpt lat="48.86656" lon="2.36544">
        <ele>45.400001525879</ele>
        <time>2016-08-01T20:01:08.000Z</time>
      </trkpt>
      <trkpt lat="48.86647" lon="2.36558">
        <ele>45.799999237061</ele>
        <time>2016-08-01T20:01:11.000Z</time>
      </trkpt>
      <trkpt lat="48.86631" lon="2.3659">
        <ele>46.200000762939</ele>
        <time>2016-08-01T20:01:17.000Z</time>
      </trkpt>
      <trkpt lat="48.86625" lon="2.36599">
        <ele>46.599998474121</ele>
        <time>2016-08-01T20:01:19.000Z</time>
      </trkpt>
      <trkpt lat="48.86607" lon="2.36625">
        <ele>46.400001525879</ele>
        <time>2016-08-01T20:01:25.000Z</time>
      </trkpt>
      <trkpt lat="48.86577" lon="2.36683">
        <ele>45.799999237061</ele>
        <time>2016-08-01T20:01:34.000Z</time>
      </trkpt>
      <trkpt lat="48.86565" lon="2.36706">
        <ele>46</ele>
        <time>2016-08-01T20:01:37.000Z</time>
      </trkpt>
      <trkpt lat="48.86537" lon="2.36768">
        <ele>46.400001525879</ele>
        <time>2016-08-01T20:01:45.000Z</time>
      </trkpt>
      <trkpt lat="48.86502" lon="2.3683">
        <ele>47.599998474121</ele>
        <time>2016-08-01T20:01:52.000Z</time>
      </trkpt>
      <trkpt lat="48.86499" lon="2.3684">
        <ele>47.400001525879</ele>
        <time>2016-08-01T20:01:53.000Z</time>
      </trkpt>
      <trkpt lat="48.86465" lon="2.36889">
        <ele>46.400001525879</ele>
        <time>2016-08-01T20:02:00.000Z</time>
      </trkpt>
      <trkpt lat="48.86449" lon="2.36905">
        <ele>46.200000762939</ele>
        <time>2016-08-01T20:02:18.000Z</time>
      </trkpt>
      <trkpt lat="48.86431" lon="2.36936">
        <ele>45.400001525879</ele>
        <time>2016-08-01T20:02:26.000Z</time>
      </trkpt>
      <trkpt lat="48.86412" lon="2.36966">
        <ele>44.400001525879</ele>
        <time>2016-08-01T20:02:32.000Z</time>
      </trkpt>
      <trkpt lat="48.86398" lon="2.36986">
        <ele>44.799999237061</ele>
        <time>2016-08-01T20:02:36.000Z</time>
      </trkpt>
      <trkpt lat="48.86383" lon="2.37012">
        <ele>44.799999237061</ele>
        <time>2016-08-01T20:02:41.000Z</time>
      </trkpt>
      <trkpt lat="48.86354" lon="2.37063">
        <ele>44.400001525879</ele>
        <time>2016-08-01T20:02:50.000Z</time>
      </trkpt>
      <trkpt lat="48.86351" lon="2.3707">
        <ele>44</ele>
        <time>2016-08-01T20:02:51.000Z</time>
      </trkpt>
      <trkpt lat="48.86318" lon="2.37126">
        <ele>43.599998474121</ele>
        <time>2016-08-01T20:02:59.000Z</time>
      </trkpt>
      <trkpt lat="48.86283" lon="2.37178">
        <ele>44.200000762939</ele>
        <time>2016-08-01T20:03:07.000Z</time>
      </trkpt>
      <trkpt lat="48.86267" lon="2.37203">
        <ele>44.400001525879</ele>
        <time>2016-08-01T20:03:11.000Z</time>
      </trkpt>
      <trkpt lat="48.86235" lon="2.37252">
        <ele>45</ele>
        <time>2016-08-01T20:03:23.000Z</time>
      </trkpt>
      <trkpt lat="48.86226" lon="2.37264">
        <ele>45.200000762939</ele>
        <time>2016-08-01T20:03:31.000Z</time>
      </trkpt>
      <trkpt lat="48.862" lon="2.37313">
        <ele>46.400001525879</ele>
        <time>2016-08-01T20:03:43.000Z</time>
      </trkpt>
      <trkpt lat="48.86192" lon="2.37323">
        <ele>46.799999237061</ele>
        <time>2016-08-01T20:03:45.000Z</time>
      </trkpt>
      <trkpt lat="48.86161" lon="2.37376">
        <ele>45.200000762939</ele>
        <time>2016-08-01T20:03:54.000Z</time>
      </trkpt>
      <trkpt lat="48.86148" lon="2.37402">
        <ele>44.599998474121</ele>
        <time>2016-08-01T20:03:58.000Z</time>
      </trkpt>
      <trkpt lat="48.86136" lon="2.37441">
        <ele>44.400001525879</ele>
        <time>2016-08-01T20:04:04.000Z</time>
      </trkpt>
      <trkpt lat="48.8613" lon="2.3746">
        <ele>43.799999237061</ele>
        <time>2016-08-01T20:04:07.000Z</time>
      </trkpt>
      <trkpt lat="48.86103" lon="2.37525">
        <ele>42.400001525879</ele>
        <time>2016-08-01T20:04:16.000Z</time>
      </trkpt>
      <trkpt lat="48.86088" lon="2.37544">
        <ele>43</ele>
        <time>2016-08-01T20:04:18.000Z</time>
      </trkpt>
      <trkpt lat="48.8606" lon="2.37599">
        <ele>46</ele>
        <time>2016-08-01T20:04:25.000Z</time>
      </trkpt>
      <trkpt lat="48.86042" lon="2.37632">
        <ele>47.400001525879</ele>
        <time>2016-08-01T20:04:29.000Z</time>
      </trkpt>
      <trkpt lat="48.86013" lon="2.37691">
        <ele>48.200000762939</ele>
        <time>2016-08-01T20:04:37.000Z</time>
      </trkpt>
      <trkpt lat="48.85983" lon="2.37751">
        <ele>48.599998474121</ele>
        <time>2016-08-01T20:04:45.000Z</time>
      </trkpt>
      <trkpt lat="48.85949" lon="2.37804">
        <ele>47.400001525879</ele>
        <time>2016-08-01T20:04:53.000Z</time>
      </trkpt>
      <trkpt lat="48.85938" lon="2.3782">
        <ele>47</ele>
        <time>2016-08-01T20:04:56.000Z</time>
      </trkpt>
      <trkpt lat="48.85906" lon="2.37848">
        <ele>46.799999237061</ele>
        <time>2016-08-01T20:05:00.000Z</time>
      </trkpt>
      <trkpt lat="48.85898" lon="2.37857">
        <ele>46.799999237061</ele>
        <time>2016-08-01T20:05:02.000Z</time>
      </trkpt>
      <trkpt lat="48.85863" lon="2.37909">
        <ele>46.200000762939</ele>
        <time>2016-08-01T20:05:13.000Z</time>
      </trkpt>
      <trkpt lat="48.85835" lon="2.3795">
        <ele>44.400001525879</ele>
        <time>2016-08-01T20:05:24.000Z</time>
      </trkpt>
      <trkpt lat="48.85836" lon="2.37976">
        <ele>43.799999237061</ele>
        <time>2016-08-01T20:05:38.000Z</time>
      </trkpt>
      <trkpt lat="48.85816" lon="2.37989">
        <ele>43.799999237061</ele>
        <time>2016-08-01T20:09:31.000Z</time>
      </trkpt>
      <trkpt lat="48.85803" lon="2.37995">
        <ele>44</ele>
        <time>2016-08-01T20:09:51.000Z</time>
      </trkpt>
      <trkpt lat="48.85797" lon="2.37996">
        <ele>44</ele>
        <time>2016-08-01T20:09:55.000Z</time>
      </trkpt>
      <trkpt lat="48.85791" lon="2.37996">
        <ele>44</ele>
        <time>2016-08-01T20:09:59.000Z</time>
      </trkpt>
      <trkpt lat="48.85788" lon="2.37994">
        <ele>44</ele>
        <time>2016-08-01T20:10:01.000Z</time>
      </trkpt>
      <trkpt lat="48.85745" lon="2.37968">
        <ele>44.200000762939</ele>
        <time>2016-08-01T20:10:16.000Z</time>
      </trkpt>
      <trkpt lat="48.857" lon="2.37943">
        <ele>44.799999237061</ele>
        <time>2016-08-01T20:10:28.000Z</time>
      </trkpt>
      <trkpt lat="48.85656" lon="2.3792">
        <ele>44.200000762939</ele>
        <time>2016-08-01T20:10:38.000Z</time>
      </trkpt>
      <trkpt lat="48.85613" lon="2.37898">
        <ele>43</ele>
        <time>2016-08-01T20:10:47.000Z</time>
      </trkpt>
      <trkpt lat="48.85584" lon="2.37886">
        <ele>43.200000762939</ele>
        <time>2016-08-01T20:10:53.000Z</time>
      </trkpt>
      <trkpt lat="48.85559" lon="2.37873">
        <ele>43.599998474121</ele>
        <time>2016-08-01T20:10:57.000Z</time>
      </trkpt>
      <trkpt lat="48.8551" lon="2.37847">
        <ele>43.799999237061</ele>
        <time>2016-08-01T20:11:06.000Z</time>
      </trkpt>
      <trkpt lat="48.8546" lon="2.37822">
        <ele>43.799999237061</ele>
        <time>2016-08-01T20:11:13.000Z</time>
      </trkpt>
      <trkpt lat="48.85409" lon="2.37801">
        <ele>42.599998474121</ele>
        <time>2016-08-01T20:11:20.000Z</time>
      </trkpt>
      <trkpt lat="48.85365" lon="2.37781">
        <ele>40.200000762939</ele>
        <time>2016-08-01T20:11:26.000Z</time>
      </trkpt>
      <trkpt lat="48.85335" lon="2.37755">
        <ele>40.799999237061</ele>
        <time>2016-08-01T20:11:32.000Z</time>
      </trkpt>
      <trkpt lat="48.85313" lon="2.37746">
        <ele>42</ele>
        <time>2016-08-01T20:11:37.000Z</time>
      </trkpt>
      <trkpt lat="48.85269" lon="2.37717">
        <ele>44</ele>
        <time>2016-08-01T20:11:45.000Z</time>
      </trkpt>
      <trkpt lat="48.85226" lon="2.37691">
        <ele>44.599998474121</ele>
        <time>2016-08-01T20:11:52.000Z</time>
      </trkpt>
      <trkpt lat="48.85179" lon="2.37669">
        <ele>45.200000762939</ele>
        <time>2016-08-01T20:11:59.000Z</time>
      </trkpt>
      <trkpt lat="48.85133" lon="2.37647">
        <ele>46</ele>
        <time>2016-08-01T20:12:07.000Z</time>
      </trkpt>
      <trkpt lat="48.8509" lon="2.3761">
        <ele>45.400001525879</ele>
        <time>2016-08-01T20:12:16.000Z</time>
      </trkpt>
      <trkpt lat="48.85049" lon="2.3758">
        <ele>44.400001525879</ele>
        <time>2016-08-01T20:12:30.000Z</time>
      </trkpt>
      <trkpt lat="48.85012" lon="2.3754">
        <ele>43.200000762939</ele>
        <time>2016-08-01T20:12:42.000Z</time>
      </trkpt>
      <trkpt lat="48.8498" lon="2.37499">
        <ele>42</ele>
        <time>2016-08-01T20:12:50.000Z</time>
      </trkpt>
      <trkpt lat="48.84964" lon="2.37464">
        <ele>42.799999237061</ele>
        <time>2016-08-01T20:12:55.000Z</time>
      </trkpt>
      <trkpt lat="48.84952" lon="2.37445">
        <ele>43.200000762939</ele>
        <time>2016-08-01T20:12:58.000Z</time>
      </trkpt>
      <trkpt lat="48.84919" lon="2.37392">
        <ele>43</ele>
        <time>2016-08-01T20:13:06.000Z</time>
      </trkpt>
      <trkpt lat="48.84886" lon="2.37341">
        <ele>40.799999237061</ele>
        <time>2016-08-01T20:13:13.000Z</time>
      </trkpt>
      <trkpt lat="48.84867" lon="2.37278">
        <ele>39.400001525879</ele>
        <time>2016-08-01T20:13:28.000Z</time>
      </trkpt>
      <trkpt lat="48.84869" lon="2.3728">
        <ele>39.599998474121</ele>
        <time>2016-08-01T20:13:46.000Z</time>
      </trkpt>
      <trkpt lat="48.84866" lon="2.37288">
        <ele>39.599998474121</ele>
        <time>2016-08-01T20:13:51.000Z</time>
      </trkpt>
      <trkpt lat="48.84848" lon="2.37333">
        <ele>40.200000762939</ele>
        <time>2016-08-01T20:14:04.000Z</time>
      </trkpt>
      <trkpt lat="48.84845" lon="2.37338">
        <ele>40.200000762939</ele>
        <time>2016-08-01T20:14:05.000Z</time>
      </trkpt>
      <trkpt lat="48.84814" lon="2.37388">
        <ele>40.799999237061</ele>
        <time>2016-08-01T20:14:15.000Z</time>
      </trkpt>
      <trkpt lat="48.84784" lon="2.3744">
        <ele>40.200000762939</ele>
        <time>2016-08-01T20:14:26.000Z</time>
      </trkpt>
      <trkpt lat="48.84777" lon="2.37451">
        <ele>40</ele>
        <time>2016-08-01T20:14:28.000Z</time>
      </trkpt>
      <trkpt lat="48.84746" lon="2.37509">
        <ele>40.200000762939</ele>
        <time>2016-08-01T20:14:37.000Z</time>
      </trkpt>
      <trkpt lat="48.8472" lon="2.37567">
        <ele>40.599998474121</ele>
        <time>2016-08-01T20:14:46.000Z</time>
      </trkpt>
      <trkpt lat="48.84693" lon="2.37625">
        <ele>41.599998474121</ele>
        <time>2016-08-01T20:14:55.000Z</time>
      </trkpt>
      <trkpt lat="48.84662" lon="2.37685">
        <ele>42</ele>
        <time>2016-08-01T20:15:05.000Z</time>
      </trkpt>
      <trkpt lat="48.84654" lon="2.37704">
        <ele>42</ele>
        <time>2016-08-01T20:15:08.000Z</time>
      </trkpt>
      <trkpt lat="48.8465" lon="2.37717">
        <ele>42</ele>
        <time>2016-08-01T20:15:10.000Z</time>
      </trkpt>
      <trkpt lat="48.84641" lon="2.37736">
        <ele>41.799999237061</ele>
        <time>2016-08-01T20:15:13.000Z</time>
      </trkpt>
      <trkpt lat="48.84633" lon="2.37755">
        <ele>41.599998474121</ele>
        <time>2016-08-01T20:15:16.000Z</time>
      </trkpt>
      <trkpt lat="48.84628" lon="2.37765">
        <ele>41.599998474121</ele>
        <time>2016-08-01T20:15:18.000Z</time>
      </trkpt>
      <trkpt lat="48.84594" lon="2.37806">
        <ele>39.400001525879</ele>
        <time>2016-08-01T20:15:27.000Z</time>
      </trkpt>
      <trkpt lat="48.84568" lon="2.37867">
        <ele>37.200000762939</ele>
        <time>2016-08-01T20:15:36.000Z</time>
      </trkpt>
      <trkpt lat="48.84559" lon="2.37888">
        <ele>37.200000762939</ele>
        <time>2016-08-01T20:15:39.000Z</time>
      </trkpt>
      <trkpt lat="48.84532" lon="2.37946">
        <ele>38.200000762939</ele>
        <time>2016-08-01T20:15:47.000Z</time>
      </trkpt>
      <trkpt lat="48.84504" lon="2.38008">
        <ele>38.799999237061</ele>
        <time>2016-08-01T20:15:55.000Z</time>
      </trkpt>
      <trkpt lat="48.84493" lon="2.38033">
        <ele>39.200000762939</ele>
        <time>2016-08-01T20:15:58.000Z</time>
      </trkpt>
      <trkpt lat="48.84462" lon="2.38094">
        <ele>38.599998474121</ele>
        <time>2016-08-01T20:16:06.000Z</time>
      </trkpt>
      <trkpt lat="48.84433" lon="2.38151">
        <ele>38.400001525879</ele>
        <time>2016-08-01T20:16:15.000Z</time>
      </trkpt>
      <trkpt lat="48.84406" lon="2.38209">
        <ele>41.400001525879</ele>
        <time>2016-08-01T20:16:25.000Z</time>
      </trkpt>
      <trkpt lat="48.84379" lon="2.38264">
        <ele>43.200000762939</ele>
        <time>2016-08-01T20:16:33.000Z</time>
      </trkpt>
      <trkpt lat="48.84372" lon="2.3828">
        <ele>42.799999237061</ele>
        <time>2016-08-01T20:16:35.000Z</time>
      </trkpt>
      <trkpt lat="48.84351" lon="2.38347">
        <ele>39.599998474121</ele>
        <time>2016-08-01T20:16:43.000Z</time>
      </trkpt>
      <trkpt lat="48.84331" lon="2.38417">
        <ele>38.599998474121</ele>
        <time>2016-08-01T20:16:52.000Z</time>
      </trkpt>
      <trkpt lat="48.84323" lon="2.38437">
        <ele>39</ele>
        <time>2016-08-01T20:16:55.000Z</time>
      </trkpt>
      <trkpt lat="48.84314" lon="2.38464">
        <ele>39.599998474121</ele>
        <time>2016-08-01T20:16:59.000Z</time>
      </trkpt>
      <trkpt lat="48.84297" lon="2.38481">
        <ele>39.799999237061</ele>
        <time>2016-08-01T20:17:01.000Z</time>
      </trkpt>
      <trkpt lat="48.84262" lon="2.3853">
        <ele>40.400001525879</ele>
        <time>2016-08-01T20:17:08.000Z</time>
      </trkpt>
      <trkpt lat="48.84245" lon="2.38593">
        <ele>42.799999237061</ele>
        <time>2016-08-01T20:17:16.000Z</time>
      </trkpt>
      <trkpt lat="48.84241" lon="2.38609">
        <ele>43.799999237061</ele>
        <time>2016-08-01T20:17:18.000Z</time>
      </trkpt>
      <trkpt lat="48.84229" lon="2.38676">
        <ele>45.400001525879</ele>
        <time>2016-08-01T20:17:27.000Z</time>
      </trkpt>
      <trkpt lat="48.84228" lon="2.38691">
        <ele>45.400001525879</ele>
        <time>2016-08-01T20:17:29.000Z</time>
      </trkpt>
      <trkpt lat="48.84205" lon="2.38732">
        <ele>44</ele>
        <time>2016-08-01T20:17:35.000Z</time>
      </trkpt>
      <trkpt lat="48.84161" lon="2.38777">
        <ele>43.599998474121</ele>
        <time>2016-08-01T20:17:41.000Z</time>
      </trkpt>
      <trkpt lat="48.84135" lon="2.38834">
        <ele>45.400001525879</ele>
        <time>2016-08-01T20:17:51.000Z</time>
      </trkpt>
      <trkpt lat="48.84132" lon="2.38835">
        <ele>45.599998474121</ele>
        <time>2016-08-01T20:17:55.000Z</time>
      </trkpt>
      <trkpt lat="48.84133" lon="2.38818">
        <ele>45.200000762939</ele>
        <time>2016-08-01T20:18:01.000Z</time>
      </trkpt>
      <trkpt lat="48.84115" lon="2.3878">
        <ele>45.799999237061</ele>
        <time>2016-08-01T20:18:17.000Z</time>
      </trkpt>
      <trkpt lat="48.84109" lon="2.38789">
        <ele>46.200000762939</ele>
        <time>2016-08-01T20:22:20.000Z</time>
      </trkpt>
      <trkpt lat="48.84113" lon="2.38792">
        <ele>46.200000762939</ele>
        <time>2016-08-01T20:22:24.000Z</time>
      </trkpt>
      <trkpt lat="48.84122" lon="2.38792">
        <ele>45.599998474121</ele>
        <time>2016-08-01T20:22:31.000Z</time>
      </trkpt>
      <trkpt lat="48.84156" lon="2.3875">
        <ele>44.200000762939</ele>
        <time>2016-08-01T20:22:51.000Z</time>
      </trkpt>
      <trkpt lat="48.8417" lon="2.38721">
        <ele>44</ele>
        <time>2016-08-01T20:22:56.000Z</time>
      </trkpt>
      <trkpt lat="48.84196" lon="2.38662">
        <ele>45</ele>
        <time>2016-08-01T20:23:05.000Z</time>
      </trkpt>
      <trkpt lat="48.84221" lon="2.38601">
        <ele>44</ele>
        <time>2016-08-01T20:23:13.000Z</time>
      </trkpt>
      <trkpt lat="48.84246" lon="2.38543">
        <ele>40.599998474121</ele>
        <time>2016-08-01T20:23:21.000Z</time>
      </trkpt>
      <trkpt lat="48.84266" lon="2.38501">
        <ele>40</ele>
        <time>2016-08-01T20:23:27.000Z</time>
      </trkpt>
      <trkpt lat="48.84289" lon="2.38441">
        <ele>39.799999237061</ele>
        <time>2016-08-01T20:23:34.000Z</time>
      </trkpt>
      <trkpt lat="48.84313" lon="2.38378">
        <ele>38.200000762939</ele>
        <time>2016-08-01T20:23:41.000Z</time>
      </trkpt>
      <trkpt lat="48.84343" lon="2.3832">
        <ele>40.400001525879</ele>
        <time>2016-08-01T20:23:48.000Z</time>
      </trkpt>
      <trkpt lat="48.84368" lon="2.3826">
        <ele>43.599998474121</ele>
        <time>2016-08-01T20:23:54.000Z</time>
      </trkpt>
      <trkpt lat="48.84388" lon="2.38215">
        <ele>42.400001525879</ele>
        <time>2016-08-01T20:23:59.000Z</time>
      </trkpt>
      <trkpt lat="48.84419" lon="2.38159">
        <ele>39.400001525879</ele>
        <time>2016-08-01T20:24:08.000Z</time>
      </trkpt>
      <trkpt lat="48.84425" lon="2.38148">
        <ele>39</ele>
        <time>2016-08-01T20:24:10.000Z</time>
      </trkpt>
      <trkpt lat="48.84436" lon="2.38123">
        <ele>37.799999237061</ele>
        <time>2016-08-01T20:24:14.000Z</time>
      </trkpt>
      <trkpt lat="48.84463" lon="2.38067">
        <ele>38.200000762939</ele>
        <time>2016-08-01T20:24:22.000Z</time>
      </trkpt>
      <trkpt lat="48.84492" lon="2.38008">
        <ele>38.599998474121</ele>
        <time>2016-08-01T20:24:30.000Z</time>
      </trkpt>
      <trkpt lat="48.84512" lon="2.37969">
        <ele>38.599998474121</ele>
        <time>2016-08-01T20:24:35.000Z</time>
      </trkpt>
      <trkpt lat="48.84537" lon="2.3792">
        <ele>37.799999237061</ele>
        <time>2016-08-01T20:24:41.000Z</time>
      </trkpt>
      <trkpt lat="48.84558" lon="2.37867">
        <ele>37.200000762939</ele>
        <time>2016-08-01T20:24:47.000Z</time>
      </trkpt>
      <trkpt lat="48.84588" lon="2.37809">
        <ele>39.200000762939</ele>
        <time>2016-08-01T20:24:54.000Z</time>
      </trkpt>
      <trkpt lat="48.84621" lon="2.37754">
        <ele>41.400001525879</ele>
        <time>2016-08-01T20:25:02.000Z</time>
      </trkpt>
      <trkpt lat="48.84649" lon="2.37699">
        <ele>42</ele>
        <time>2016-08-01T20:25:09.000Z</time>
      </trkpt>
      <trkpt lat="48.84678" lon="2.37643">
        <ele>41.799999237061</ele>
        <time>2016-08-01T20:25:16.000Z</time>
      </trkpt>
      <trkpt lat="48.84703" lon="2.37584">
        <ele>40.799999237061</ele>
        <time>2016-08-01T20:25:23.000Z</time>
      </trkpt>
      <trkpt lat="48.84729" lon="2.37523">
        <ele>41</ele>
        <time>2016-08-01T20:25:30.000Z</time>
      </trkpt>
      <trkpt lat="48.84758" lon="2.3746">
        <ele>40</ele>
        <time>2016-08-01T20:25:38.000Z</time>
      </trkpt>
      <trkpt lat="48.84787" lon="2.37405">
        <ele>41</ele>
        <time>2016-08-01T20:25:47.000Z</time>
      </trkpt>
      <trkpt lat="48.84817" lon="2.37349">
        <ele>41</ele>
        <time>2016-08-01T20:25:57.000Z</time>
      </trkpt>
      <trkpt lat="48.84845" lon="2.37297">
        <ele>39.799999237061</ele>
        <time>2016-08-01T20:26:06.000Z</time>
      </trkpt>
      <trkpt lat="48.84868" lon="2.37236">
        <ele>39.200000762939</ele>
        <time>2016-08-01T20:26:17.000Z</time>
      </trkpt>
      <trkpt lat="48.84881" lon="2.37202">
        <ele>40.400001525879</ele>
        <time>2016-08-01T20:26:22.000Z</time>
      </trkpt>
      <trkpt lat="48.8491" lon="2.37146">
        <ele>39.400001525879</ele>
        <time>2016-08-01T20:26:30.000Z</time>
      </trkpt>
      <trkpt lat="48.84929" lon="2.3712">
        <ele>40.200000762939</ele>
        <time>2016-08-01T20:26:34.000Z</time>
      </trkpt>
      <trkpt lat="48.84969" lon="2.37074">
        <ele>41.799999237061</ele>
        <time>2016-08-01T20:26:42.000Z</time>
      </trkpt>
      <trkpt lat="48.84984" lon="2.37061">
        <ele>42.200000762939</ele>
        <time>2016-08-01T20:26:45.000Z</time>
      </trkpt>
      <trkpt lat="48.85026" lon="2.37035">
        <ele>44</ele>
        <time>2016-08-01T20:26:53.000Z</time>
      </trkpt>
      <trkpt lat="48.85045" lon="2.37028">
        <ele>45.200000762939</ele>
        <time>2016-08-01T20:26:56.000Z</time>
      </trkpt>
      <trkpt lat="48.85093" lon="2.37009">
        <ele>48</ele>
        <time>2016-08-01T20:27:05.000Z</time>
      </trkpt>
      <trkpt lat="48.85138" lon="2.36991">
        <ele>48.400001525879</ele>
        <time>2016-08-01T20:27:15.000Z</time>
      </trkpt>
      <trkpt lat="48.85184" lon="2.36972">
        <ele>45.799999237061</ele>
        <time>2016-08-01T20:27:28.000Z</time>
      </trkpt>
      <trkpt lat="48.85229" lon="2.36949">
        <ele>44.400001525879</ele>
        <time>2016-08-01T20:27:43.000Z</time>
      </trkpt>
      <trkpt lat="48.85263" lon="2.36946">
        <ele>45.799999237061</ele>
        <time>2016-08-01T20:27:55.000Z</time>
      </trkpt>
      <trkpt lat="48.853" lon="2.36988">
        <ele>46.599998474121</ele>
        <time>2016-08-01T20:28:12.000Z</time>
      </trkpt>
      <trkpt lat="48.8534" lon="2.36967">
        <ele>42.599998474121</ele>
        <time>2016-08-01T20:28:28.000Z</time>
      </trkpt>
      <trkpt lat="48.85345" lon="2.36899">
        <ele>42.799999237061</ele>
        <time>2016-08-01T20:28:43.000Z</time>
      </trkpt>
      <trkpt lat="48.85332" lon="2.36852">
        <ele>44.200000762939</ele>
        <time>2016-08-01T20:28:56.000Z</time>
      </trkpt>
      <trkpt lat="48.8533" lon="2.3684">
        <ele>44.599998474121</ele>
        <time>2016-08-01T20:28:58.000Z</time>
      </trkpt>
      <trkpt lat="48.85335" lon="2.36783">
        <ele>46.400001525879</ele>
        <time>2016-08-01T20:29:06.000Z</time>
      </trkpt>
      <trkpt lat="48.85338" lon="2.36762">
        <ele>46.200000762939</ele>
        <time>2016-08-01T20:29:09.000Z</time>
      </trkpt>
      <trkpt lat="48.85343" lon="2.36732">
        <ele>46.599998474121</ele>
        <time>2016-08-01T20:29:13.000Z</time>
      </trkpt>
      <trkpt lat="48.85346" lon="2.36709">
        <ele>45</ele>
        <time>2016-08-01T20:29:16.000Z</time>
      </trkpt>
      <trkpt lat="48.85352" lon="2.36649">
        <ele>42.400001525879</ele>
        <time>2016-08-01T20:29:23.000Z</time>
      </trkpt>
      <trkpt lat="48.85369" lon="2.36581">
        <ele>43.599998474121</ele>
        <time>2016-08-01T20:29:30.000Z</time>
      </trkpt>
      <trkpt lat="48.85388" lon="2.36509">
        <ele>43.799999237061</ele>
        <time>2016-08-01T20:29:37.000Z</time>
      </trkpt>
      <trkpt lat="48.85407" lon="2.36436">
        <ele>45.799999237061</ele>
        <time>2016-08-01T20:29:44.000Z</time>
      </trkpt>
      <trkpt lat="48.8543" lon="2.36369">
        <ele>45.200000762939</ele>
        <time>2016-08-01T20:29:51.000Z</time>
      </trkpt>
      <trkpt lat="48.85442" lon="2.36334">
        <ele>45</ele>
        <time>2016-08-01T20:29:55.000Z</time>
      </trkpt>
      <trkpt lat="48.85462" lon="2.36269">
        <ele>42.200000762939</ele>
        <time>2016-08-01T20:30:03.000Z</time>
      </trkpt>
      <trkpt lat="48.8549" lon="2.36208">
        <ele>42.400001525879</ele>
        <time>2016-08-01T20:30:12.000Z</time>
      </trkpt>
      <trkpt lat="48.85498" lon="2.36189">
        <ele>43.200000762939</ele>
        <time>2016-08-01T20:30:15.000Z</time>
      </trkpt>
      <trkpt lat="48.85517" lon="2.36122">
        <ele>44.200000762939</ele>
        <time>2016-08-01T20:30:25.000Z</time>
      </trkpt>
      <trkpt lat="48.85533" lon="2.36051">
        <ele>44.400001525879</ele>
        <time>2016-08-01T20:30:35.000Z</time>
      </trkpt>
      <trkpt lat="48.85536" lon="2.36036">
        <ele>44.599998474121</ele>
        <time>2016-08-01T20:30:37.000Z</time>
      </trkpt>
      <trkpt lat="48.85549" lon="2.35984">
        <ele>45.200000762939</ele>
        <time>2016-08-01T20:30:45.000Z</time>
      </trkpt>
      <trkpt lat="48.85553" lon="2.35963">
        <ele>45</ele>
        <time>2016-08-01T20:30:48.000Z</time>
      </trkpt>
      <trkpt lat="48.85568" lon="2.35899">
        <ele>44.599998474121</ele>
        <time>2016-08-01T20:30:57.000Z</time>
      </trkpt>
      <trkpt lat="48.85585" lon="2.35828">
        <ele>44.599998474121</ele>
        <time>2016-08-01T20:31:06.000Z</time>
      </trkpt>
      <trkpt lat="48.85587" lon="2.35821">
        <ele>44.599998474121</ele>
        <time>2016-08-01T20:31:07.000Z</time>
      </trkpt>
      <trkpt lat="48.85603" lon="2.35752">
        <ele>44.799999237061</ele>
        <time>2016-08-01T20:31:17.000Z</time>
      </trkpt>
      <trkpt lat="48.85611" lon="2.35719">
        <ele>44.799999237061</ele>
        <time>2016-08-01T20:31:22.000Z</time>
      </trkpt>
      <trkpt lat="48.85619" lon="2.35685">
        <ele>44.799999237061</ele>
        <time>2016-08-01T20:31:27.000Z</time>
      </trkpt>
      <trkpt lat="48.85634" lon="2.35615">
        <ele>44</ele>
        <time>2016-08-01T20:31:36.000Z</time>
      </trkpt>
      <trkpt lat="48.85652" lon="2.35546">
        <ele>43</ele>
        <time>2016-08-01T20:31:44.000Z</time>
      </trkpt>
      <trkpt lat="48.85669" lon="2.35476">
        <ele>45.799999237061</ele>
        <time>2016-08-01T20:31:52.000Z</time>
      </trkpt>
      <trkpt lat="48.85689" lon="2.35412">
        <ele>45</ele>
        <time>2016-08-01T20:32:00.000Z</time>
      </trkpt>
      <trkpt lat="48.85706" lon="2.35348">
        <ele>48.599998474121</ele>
        <time>2016-08-01T20:32:12.000Z</time>
      </trkpt>
      <trkpt lat="48.85722" lon="2.35281">
        <ele>49</ele>
        <time>2016-08-01T20:32:21.000Z</time>
      </trkpt>
      <trkpt lat="48.85736" lon="2.35209">
        <ele>42.799999237061</ele>
        <time>2016-08-01T20:32:31.000Z</time>
      </trkpt>
      <trkpt lat="48.85744" lon="2.35169">
        <ele>40.599998474121</ele>
        <time>2016-08-01T20:32:37.000Z</time>
      </trkpt>
      <trkpt lat="48.85763" lon="2.35104">
        <ele>43</ele>
        <time>2016-08-01T20:32:47.000Z</time>
      </trkpt>
      <trkpt lat="48.85772" lon="2.35075">
        <ele>45.200000762939</ele>
        <time>2016-08-01T20:32:51.000Z</time>
      </trkpt>
      <trkpt lat="48.85791" lon="2.35014">
        <ele>48.200000762939</ele>
        <time>2016-08-01T20:33:00.000Z</time>
      </trkpt>
      <trkpt lat="48.85795" lon="2.35001">
        <ele>47.799999237061</ele>
        <time>2016-08-01T20:33:02.000Z</time>
      </trkpt>
      <trkpt lat="48.85808" lon="2.34959">
        <ele>44.400001525879</ele>
        <time>2016-08-01T20:33:08.000Z</time>
      </trkpt>
      <trkpt lat="48.85823" lon="2.34916">
        <ele>45.200000762939</ele>
        <time>2016-08-01T20:33:14.000Z</time>
      </trkpt>
      <trkpt lat="48.85841" lon="2.34852">
        <ele>46.200000762939</ele>
        <time>2016-08-01T20:33:22.000Z</time>
      </trkpt>
      <trkpt lat="48.85862" lon="2.3479">
        <ele>47.599998474121</ele>
        <time>2016-08-01T20:33:30.000Z</time>
      </trkpt>
      <trkpt lat="48.85879" lon="2.34743">
        <ele>46.200000762939</ele>
        <time>2016-08-01T20:33:37.000Z</time>
      </trkpt>
      <trkpt lat="48.85922" lon="2.34717">
        <ele>45.599998474121</ele>
        <time>2016-08-01T20:33:50.000Z</time>
      </trkpt>
      <trkpt lat="48.85939" lon="2.34706">
        <ele>45.599998474121</ele>
        <time>2016-08-01T20:33:56.000Z</time>
      </trkpt>
      <trkpt lat="48.85952" lon="2.34718">
        <ele>45.200000762939</ele>
        <time>2016-08-01T20:34:05.000Z</time>
      </trkpt>
    </trkseg>
  </trk>
</gpx>